<?xml version="1.0" encoding="UTF-8" standalone="no" ?>
<gpx xmlns="http://www.topografix.com/GPX/1/1" xmlns:xsi="http://www.w3.org/2001/XMLSchema-instance" xsi:schemaLocation="http://www.topografix.com/GPX/1/1 http://www.topografix.com/GPX/1/1/gpx.xsd" version="1.1" creator="VisuGPX - https://www.visugpx.com">
  <metadata>
    <name>81 - Andillac </name>
    <desc><![CDATA[Cet itinéraire fait partie de la collection de EquiLiberté : www.equiliberte.org
Circuit NON (??) ACCESSIBLE aux attelages
Randonnée de 39 km sans trop de dénivellé ]]></desc>
  </metadata>
  <trk>
    <name><![CDATA[81 - Andillac ]]></name>
    <trkseg>
      <trkpt lat="43.99898" lon="1.89161">
        <ele>242</ele>
        <time>2009-08-30T04:07:35Z</time>
      </trkpt>
      <trkpt lat="43.99902" lon="1.89158">
        <ele>251</ele>
        <time>2009-08-30T04:35:34Z</time>
      </trkpt>
      <trkpt lat="43.99903" lon="1.89152">
        <ele>248</ele>
        <time>2009-08-30T04:36:52Z</time>
      </trkpt>
      <trkpt lat="43.99909" lon="1.8913">
        <ele>242</ele>
        <time>2009-08-30T04:37:08Z</time>
      </trkpt>
      <trkpt lat="43.9991" lon="1.8912">
        <ele>241</ele>
        <time>2009-08-30T04:37:16Z</time>
      </trkpt>
      <trkpt lat="43.99906" lon="1.8911">
        <ele>239</ele>
        <time>2009-08-30T04:37:24Z</time>
      </trkpt>
      <trkpt lat="43.99893" lon="1.891">
        <ele>240</ele>
        <time>2009-08-30T04:37:38Z</time>
      </trkpt>
      <trkpt lat="43.99888" lon="1.89098">
        <ele>240</ele>
        <time>2009-08-30T04:37:43Z</time>
      </trkpt>
      <trkpt lat="43.99883" lon="1.89091">
        <ele>240</ele>
        <time>2009-08-30T04:37:50Z</time>
      </trkpt>
      <trkpt lat="43.99889" lon="1.89075">
        <ele>241</ele>
        <time>2009-08-30T04:38:03Z</time>
      </trkpt>
      <trkpt lat="43.99899" lon="1.89056">
        <ele>243</ele>
        <time>2009-08-30T04:38:21Z</time>
      </trkpt>
      <trkpt lat="43.99898" lon="1.89055">
        <ele>243</ele>
        <time>2009-08-30T04:38:45Z</time>
      </trkpt>
      <trkpt lat="43.99903" lon="1.89048">
        <ele>245</ele>
        <time>2009-08-30T04:52:39Z</time>
      </trkpt>
      <trkpt lat="43.99905" lon="1.8903">
        <ele>246</ele>
        <time>2009-08-30T04:54:19Z</time>
      </trkpt>
      <trkpt lat="43.99913" lon="1.89007">
        <ele>247</ele>
        <time>2009-08-30T04:54:34Z</time>
      </trkpt>
      <trkpt lat="43.99914" lon="1.89">
        <ele>247</ele>
        <time>2009-08-30T04:54:39Z</time>
      </trkpt>
      <trkpt lat="43.99929" lon="1.88972">
        <ele>247</ele>
        <time>2009-08-30T04:54:52Z</time>
      </trkpt>
      <trkpt lat="43.99965" lon="1.88949">
        <ele>245</ele>
        <time>2009-08-30T04:55:04Z</time>
      </trkpt>
      <trkpt lat="43.99998" lon="1.88926">
        <ele>249</ele>
        <time>2009-08-30T04:55:20Z</time>
      </trkpt>
      <trkpt lat="44.00029" lon="1.88906">
        <ele>252</ele>
        <time>2009-08-30T04:55:36Z</time>
      </trkpt>
      <trkpt lat="44.00057" lon="1.88896">
        <ele>255</ele>
        <time>2009-08-30T04:55:51Z</time>
      </trkpt>
      <trkpt lat="44.00077" lon="1.88868">
        <ele>258</ele>
        <time>2009-08-30T04:56:07Z</time>
      </trkpt>
      <trkpt lat="44.001" lon="1.88828">
        <ele>263</ele>
        <time>2009-08-30T04:56:26Z</time>
      </trkpt>
      <trkpt lat="44.00126" lon="1.8879">
        <ele>265</ele>
        <time>2009-08-30T04:56:44Z</time>
      </trkpt>
      <trkpt lat="44.00157" lon="1.88762">
        <ele>263</ele>
        <time>2009-08-30T04:57:01Z</time>
      </trkpt>
      <trkpt lat="44.00184" lon="1.88786">
        <ele>263</ele>
        <time>2009-08-30T04:57:11Z</time>
      </trkpt>
      <trkpt lat="44.00247" lon="1.88852">
        <ele>256</ele>
        <time>2009-08-30T04:57:25Z</time>
      </trkpt>
      <trkpt lat="44.00251" lon="1.88857">
        <ele>255</ele>
        <time>2009-08-30T04:57:26Z</time>
      </trkpt>
      <trkpt lat="44.00261" lon="1.88871">
        <ele>254</ele>
        <time>2009-08-30T04:57:29Z</time>
      </trkpt>
      <trkpt lat="44.00279" lon="1.88867">
        <ele>256</ele>
        <time>2009-08-30T04:57:35Z</time>
      </trkpt>
      <trkpt lat="44.00298" lon="1.88834">
        <ele>254</ele>
        <time>2009-08-30T04:57:41Z</time>
      </trkpt>
      <trkpt lat="44.00342" lon="1.88773">
        <ele>256</ele>
        <time>2009-08-30T04:57:55Z</time>
      </trkpt>
      <trkpt lat="44.00382" lon="1.88712">
        <ele>258</ele>
        <time>2009-08-30T04:58:11Z</time>
      </trkpt>
      <trkpt lat="44.00425" lon="1.88686">
        <ele>258</ele>
        <time>2009-08-30T04:58:25Z</time>
      </trkpt>
      <trkpt lat="44.00455" lon="1.88662">
        <ele>262</ele>
        <time>2009-08-30T04:58:40Z</time>
      </trkpt>
      <trkpt lat="44.00477" lon="1.88644">
        <ele>265</ele>
        <time>2009-08-30T04:58:54Z</time>
      </trkpt>
      <trkpt lat="44.00501" lon="1.88656">
        <ele>263</ele>
        <time>2009-08-30T04:59:05Z</time>
      </trkpt>
      <trkpt lat="44.00519" lon="1.88681">
        <ele>261</ele>
        <time>2009-08-30T04:59:11Z</time>
      </trkpt>
      <trkpt lat="44.00521" lon="1.88741">
        <ele>254</ele>
        <time>2009-08-30T04:59:21Z</time>
      </trkpt>
      <trkpt lat="44.0052" lon="1.88747">
        <ele>254</ele>
        <time>2009-08-30T04:59:22Z</time>
      </trkpt>
      <trkpt lat="44.00505" lon="1.88786">
        <ele>254</ele>
        <time>2009-08-30T04:59:29Z</time>
      </trkpt>
      <trkpt lat="44.00502" lon="1.88798">
        <ele>254</ele>
        <time>2009-08-30T04:59:31Z</time>
      </trkpt>
      <trkpt lat="44.00495" lon="1.88816">
        <ele>254</ele>
        <time>2009-08-30T04:59:34Z</time>
      </trkpt>
      <trkpt lat="44.00486" lon="1.88833">
        <ele>255</ele>
        <time>2009-08-30T04:59:37Z</time>
      </trkpt>
      <trkpt lat="44.00475" lon="1.88854">
        <ele>255</ele>
        <time>2009-08-30T04:59:42Z</time>
      </trkpt>
      <trkpt lat="44.00475" lon="1.88864">
        <ele>255</ele>
        <time>2009-08-30T04:59:44Z</time>
      </trkpt>
      <trkpt lat="44.00481" lon="1.88892">
        <ele>253</ele>
        <time>2009-08-30T04:59:49Z</time>
      </trkpt>
      <trkpt lat="44.00483" lon="1.88915">
        <ele>251</ele>
        <time>2009-08-30T04:59:52Z</time>
      </trkpt>
      <trkpt lat="44.00507" lon="1.8894">
        <ele>251</ele>
        <time>2009-08-30T05:00:00Z</time>
      </trkpt>
      <trkpt lat="44.00516" lon="1.88935">
        <ele>254</ele>
        <time>2009-08-30T05:00:08Z</time>
      </trkpt>
      <trkpt lat="44.00516" lon="1.88935">
        <ele>256</ele>
        <time>2009-08-30T05:00:11Z</time>
      </trkpt>
      <trkpt lat="44.00556" lon="1.88891">
        <ele>257</ele>
        <time>2009-08-30T05:00:13Z</time>
      </trkpt>
      <trkpt lat="44.00594" lon="1.88829">
        <ele>261</ele>
        <time>2009-08-30T05:00:27Z</time>
      </trkpt>
      <trkpt lat="44.00649" lon="1.88789">
        <ele>254</ele>
        <time>2009-08-30T05:00:40Z</time>
      </trkpt>
      <trkpt lat="44.00664" lon="1.88775">
        <ele>255</ele>
        <time>2009-08-30T05:00:44Z</time>
      </trkpt>
      <trkpt lat="44.00698" lon="1.88774">
        <ele>251</ele>
        <time>2009-08-30T05:00:54Z</time>
      </trkpt>
      <trkpt lat="44.00701" lon="1.88777">
        <ele>251</ele>
        <time>2009-08-30T05:00:55Z</time>
      </trkpt>
      <trkpt lat="44.00709" lon="1.88781">
        <ele>251</ele>
        <time>2009-08-30T05:00:57Z</time>
      </trkpt>
      <trkpt lat="44.00723" lon="1.88785">
        <ele>251</ele>
        <time>2009-08-30T05:01:00Z</time>
      </trkpt>
      <trkpt lat="44.00747" lon="1.88775">
        <ele>252</ele>
        <time>2009-08-30T05:01:06Z</time>
      </trkpt>
      <trkpt lat="44.00755" lon="1.88769">
        <ele>251</ele>
        <time>2009-08-30T05:01:08Z</time>
      </trkpt>
      <trkpt lat="44.00805" lon="1.88738">
        <ele>252</ele>
        <time>2009-08-30T05:01:23Z</time>
      </trkpt>
      <trkpt lat="44.00845" lon="1.88698">
        <ele>255</ele>
        <time>2009-08-30T05:01:38Z</time>
      </trkpt>
      <trkpt lat="44.00888" lon="1.8866">
        <ele>257</ele>
        <time>2009-08-30T05:01:55Z</time>
      </trkpt>
      <trkpt lat="44.00925" lon="1.88631">
        <ele>257</ele>
        <time>2009-08-30T05:02:10Z</time>
      </trkpt>
      <trkpt lat="44.00969" lon="1.88608">
        <ele>258</ele>
        <time>2009-08-30T05:02:27Z</time>
      </trkpt>
      <trkpt lat="44.00972" lon="1.88599">
        <ele>258</ele>
        <time>2009-08-30T05:02:31Z</time>
      </trkpt>
      <trkpt lat="44.00967" lon="1.88555">
        <ele>259</ele>
        <time>2009-08-30T05:02:49Z</time>
      </trkpt>
      <trkpt lat="44.00976" lon="1.8853">
        <ele>265</ele>
        <time>2009-08-30T05:03:01Z</time>
      </trkpt>
      <trkpt lat="44.01012" lon="1.88513">
        <ele>267</ele>
        <time>2009-08-30T05:03:19Z</time>
      </trkpt>
      <trkpt lat="44.01043" lon="1.88482">
        <ele>270</ele>
        <time>2009-08-30T05:03:35Z</time>
      </trkpt>
      <trkpt lat="44.01057" lon="1.88468">
        <ele>270</ele>
        <time>2009-08-30T05:03:47Z</time>
      </trkpt>
      <trkpt lat="44.0106" lon="1.88465">
        <ele>270</ele>
        <time>2009-08-30T05:03:58Z</time>
      </trkpt>
      <trkpt lat="44.01056" lon="1.88468">
        <ele>269</ele>
        <time>2009-08-30T05:04:20Z</time>
      </trkpt>
      <trkpt lat="44.01056" lon="1.88468">
        <ele>269</ele>
        <time>2009-08-30T05:04:41Z</time>
      </trkpt>
      <trkpt lat="44.0106" lon="1.88431">
        <ele>273</ele>
        <time>2009-08-30T05:04:54Z</time>
      </trkpt>
      <trkpt lat="44.0107" lon="1.88387">
        <ele>278</ele>
        <time>2009-08-30T05:05:07Z</time>
      </trkpt>
      <trkpt lat="44.01072" lon="1.88345">
        <ele>284</ele>
        <time>2009-08-30T05:05:22Z</time>
      </trkpt>
      <trkpt lat="44.01068" lon="1.88329">
        <ele>284</ele>
        <time>2009-08-30T05:05:27Z</time>
      </trkpt>
      <trkpt lat="44.01076" lon="1.88317">
        <ele>284</ele>
        <time>2009-08-30T05:05:33Z</time>
      </trkpt>
      <trkpt lat="44.01137" lon="1.88308">
        <ele>279</ele>
        <time>2009-08-30T05:05:46Z</time>
      </trkpt>
      <trkpt lat="44.01204" lon="1.88328">
        <ele>290</ele>
        <time>2009-08-30T05:06:00Z</time>
      </trkpt>
      <trkpt lat="44.01269" lon="1.88351">
        <ele>291</ele>
        <time>2009-08-30T05:06:15Z</time>
      </trkpt>
      <trkpt lat="44.01315" lon="1.88368">
        <ele>289</ele>
        <time>2009-08-30T05:06:28Z</time>
      </trkpt>
      <trkpt lat="44.01356" lon="1.88384">
        <ele>286</ele>
        <time>2009-08-30T05:06:42Z</time>
      </trkpt>
      <trkpt lat="44.01384" lon="1.88395">
        <ele>286</ele>
        <time>2009-08-30T05:06:57Z</time>
      </trkpt>
      <trkpt lat="44.01385" lon="1.88396">
        <ele>286</ele>
        <time>2009-08-30T05:06:58Z</time>
      </trkpt>
      <trkpt lat="44.01373" lon="1.88464">
        <ele>284</ele>
        <time>2009-08-30T05:07:04Z</time>
      </trkpt>
      <trkpt lat="44.01369" lon="1.88472">
        <ele>285</ele>
        <time>2009-08-30T05:07:07Z</time>
      </trkpt>
      <trkpt lat="44.0136" lon="1.88476">
        <ele>284</ele>
        <time>2009-08-30T05:07:12Z</time>
      </trkpt>
      <trkpt lat="44.01344" lon="1.88483">
        <ele>284</ele>
        <time>2009-08-30T05:07:25Z</time>
      </trkpt>
      <trkpt lat="44.01344" lon="1.88483">
        <ele>284</ele>
        <time>2009-08-30T05:07:54Z</time>
      </trkpt>
      <trkpt lat="44.01345" lon="1.88482">
        <ele>284</ele>
        <time>2009-08-30T05:11:28Z</time>
      </trkpt>
      <trkpt lat="44.01341" lon="1.88519">
        <ele>284</ele>
        <time>2009-08-30T05:11:38Z</time>
      </trkpt>
      <trkpt lat="44.01345" lon="1.88618">
        <ele>287</ele>
        <time>2009-08-30T05:11:52Z</time>
      </trkpt>
      <trkpt lat="44.0133" lon="1.88641">
        <ele>287</ele>
        <time>2009-08-30T05:11:58Z</time>
      </trkpt>
      <trkpt lat="44.01316" lon="1.88662">
        <ele>286</ele>
        <time>2009-08-30T05:12:03Z</time>
      </trkpt>
      <trkpt lat="44.01311" lon="1.88671">
        <ele>287</ele>
        <time>2009-08-30T05:12:05Z</time>
      </trkpt>
      <trkpt lat="44.01285" lon="1.8871">
        <ele>285</ele>
        <time>2009-08-30T05:12:15Z</time>
      </trkpt>
      <trkpt lat="44.013" lon="1.88732">
        <ele>286</ele>
        <time>2009-08-30T05:12:21Z</time>
      </trkpt>
      <trkpt lat="44.0135" lon="1.88775">
        <ele>280</ele>
        <time>2009-08-30T05:12:31Z</time>
      </trkpt>
      <trkpt lat="44.01377" lon="1.8877">
        <ele>279</ele>
        <time>2009-08-30T05:12:39Z</time>
      </trkpt>
      <trkpt lat="44.01389" lon="1.8876">
        <ele>278</ele>
        <time>2009-08-30T05:12:44Z</time>
      </trkpt>
      <trkpt lat="44.01401" lon="1.8877">
        <ele>277</ele>
        <time>2009-08-30T05:12:47Z</time>
      </trkpt>
      <trkpt lat="44.01474" lon="1.88818">
        <ele>264</ele>
        <time>2009-08-30T05:12:58Z</time>
      </trkpt>
      <trkpt lat="44.01491" lon="1.88828">
        <ele>262</ele>
        <time>2009-08-30T05:13:01Z</time>
      </trkpt>
      <trkpt lat="44.01514" lon="1.88819">
        <ele>264</ele>
        <time>2009-08-30T05:13:07Z</time>
      </trkpt>
      <trkpt lat="44.0152" lon="1.88811">
        <ele>265</ele>
        <time>2009-08-30T05:13:09Z</time>
      </trkpt>
      <trkpt lat="44.01546" lon="1.88804">
        <ele>264</ele>
        <time>2009-08-30T05:13:15Z</time>
      </trkpt>
      <trkpt lat="44.01605" lon="1.88819">
        <ele>263</ele>
        <time>2009-08-30T05:13:28Z</time>
      </trkpt>
      <trkpt lat="44.01643" lon="1.88833">
        <ele>266</ele>
        <time>2009-08-30T05:13:41Z</time>
      </trkpt>
      <trkpt lat="44.01671" lon="1.88843">
        <ele>269</ele>
        <time>2009-08-30T05:13:55Z</time>
      </trkpt>
      <trkpt lat="44.01695" lon="1.88848">
        <ele>272</ele>
        <time>2009-08-30T05:14:06Z</time>
      </trkpt>
      <trkpt lat="44.01731" lon="1.8884">
        <ele>271</ele>
        <time>2009-08-30T05:14:21Z</time>
      </trkpt>
      <trkpt lat="44.01738" lon="1.88838">
        <ele>270</ele>
        <time>2009-08-30T05:14:23Z</time>
      </trkpt>
      <trkpt lat="44.01755" lon="1.88833">
        <ele>270</ele>
        <time>2009-08-30T05:14:27Z</time>
      </trkpt>
      <trkpt lat="44.01786" lon="1.88855">
        <ele>266</ele>
        <time>2009-08-30T05:14:33Z</time>
      </trkpt>
      <trkpt lat="44.01844" lon="1.88917">
        <ele>267</ele>
        <time>2009-08-30T05:14:45Z</time>
      </trkpt>
      <trkpt lat="44.01853" lon="1.88924">
        <ele>269</ele>
        <time>2009-08-30T05:14:55Z</time>
      </trkpt>
      <trkpt lat="44.01854" lon="1.88925">
        <ele>269</ele>
        <time>2009-08-30T05:16:38Z</time>
      </trkpt>
      <trkpt lat="44.01854" lon="1.88932">
        <ele>269</ele>
        <time>2009-08-30T05:16:50Z</time>
      </trkpt>
      <trkpt lat="44.01855" lon="1.88932">
        <ele>269</ele>
        <time>2009-08-30T05:16:59Z</time>
      </trkpt>
      <trkpt lat="44.01858" lon="1.88932">
        <ele>269</ele>
        <time>2009-08-30T05:17:01Z</time>
      </trkpt>
      <trkpt lat="44.01882" lon="1.88962">
        <ele>273</ele>
        <time>2009-08-30T05:17:18Z</time>
      </trkpt>
      <trkpt lat="44.01904" lon="1.88976">
        <ele>277</ele>
        <time>2009-08-30T05:17:31Z</time>
      </trkpt>
      <trkpt lat="44.01898" lon="1.89">
        <ele>277</ele>
        <time>2009-08-30T05:17:40Z</time>
      </trkpt>
      <trkpt lat="44.01898" lon="1.89003">
        <ele>277</ele>
        <time>2009-08-30T05:17:41Z</time>
      </trkpt>
      <trkpt lat="44.01871" lon="1.89038">
        <ele>274</ele>
        <time>2009-08-30T05:17:51Z</time>
      </trkpt>
      <trkpt lat="44.01866" lon="1.8904">
        <ele>273</ele>
        <time>2009-08-30T05:17:53Z</time>
      </trkpt>
      <trkpt lat="44.01868" lon="1.8905">
        <ele>269</ele>
        <time>2009-08-30T05:17:58Z</time>
      </trkpt>
      <trkpt lat="44.01875" lon="1.89054">
        <ele>268</ele>
        <time>2009-08-30T05:18:01Z</time>
      </trkpt>
      <trkpt lat="44.01876" lon="1.89069">
        <ele>265</ele>
        <time>2009-08-30T05:18:05Z</time>
      </trkpt>
      <trkpt lat="44.01864" lon="1.89118">
        <ele>261</ele>
        <time>2009-08-30T05:18:16Z</time>
      </trkpt>
      <trkpt lat="44.01851" lon="1.89142">
        <ele>262</ele>
        <time>2009-08-30T05:18:33Z</time>
      </trkpt>
      <trkpt lat="44.01823" lon="1.89174">
        <ele>263</ele>
        <time>2009-08-30T05:18:46Z</time>
      </trkpt>
      <trkpt lat="44.01797" lon="1.8921">
        <ele>263</ele>
        <time>2009-08-30T05:19:00Z</time>
      </trkpt>
      <trkpt lat="44.01801" lon="1.89227">
        <ele>261</ele>
        <time>2009-08-30T05:19:09Z</time>
      </trkpt>
      <trkpt lat="44.01801" lon="1.89227">
        <ele>262</ele>
        <time>2009-08-30T05:19:12Z</time>
      </trkpt>
      <trkpt lat="44.01801" lon="1.89227">
        <ele>263</ele>
        <time>2009-08-30T05:19:14Z</time>
      </trkpt>
      <trkpt lat="44.01775" lon="1.89308">
        <ele>264</ele>
        <time>2009-08-30T05:19:16Z</time>
      </trkpt>
      <trkpt lat="44.01749" lon="1.89343">
        <ele>266</ele>
        <time>2009-08-30T05:19:25Z</time>
      </trkpt>
      <trkpt lat="44.01739" lon="1.89397">
        <ele>265</ele>
        <time>2009-08-30T05:19:38Z</time>
      </trkpt>
      <trkpt lat="44.0172" lon="1.89448">
        <ele>272</ele>
        <time>2009-08-30T05:19:55Z</time>
      </trkpt>
      <trkpt lat="44.01701" lon="1.89492">
        <ele>271</ele>
        <time>2009-08-30T05:20:11Z</time>
      </trkpt>
      <trkpt lat="44.01684" lon="1.89526">
        <ele>276</ele>
        <time>2009-08-30T05:20:26Z</time>
      </trkpt>
      <trkpt lat="44.0166" lon="1.8957">
        <ele>277</ele>
        <time>2009-08-30T05:20:44Z</time>
      </trkpt>
      <trkpt lat="44.01663" lon="1.89607">
        <ele>281</ele>
        <time>2009-08-30T05:20:58Z</time>
      </trkpt>
      <trkpt lat="44.01661" lon="1.89626">
        <ele>281</ele>
        <time>2009-08-30T05:21:05Z</time>
      </trkpt>
      <trkpt lat="44.01677" lon="1.89649">
        <ele>274</ele>
        <time>2009-08-30T05:21:21Z</time>
      </trkpt>
      <trkpt lat="44.01691" lon="1.89674">
        <ele>275</ele>
        <time>2009-08-30T05:21:25Z</time>
      </trkpt>
      <trkpt lat="44.01712" lon="1.89691">
        <ele>283</ele>
        <time>2009-08-30T05:21:43Z</time>
      </trkpt>
      <trkpt lat="44.01754" lon="1.89694">
        <ele>284</ele>
        <time>2009-08-30T05:21:58Z</time>
      </trkpt>
      <trkpt lat="44.01787" lon="1.89665">
        <ele>286</ele>
        <time>2009-08-30T05:22:11Z</time>
      </trkpt>
      <trkpt lat="44.01823" lon="1.8963">
        <ele>289</ele>
        <time>2009-08-30T05:22:26Z</time>
      </trkpt>
      <trkpt lat="44.01855" lon="1.89604">
        <ele>291</ele>
        <time>2009-08-30T05:22:39Z</time>
      </trkpt>
      <trkpt lat="44.01876" lon="1.89591">
        <ele>290</ele>
        <time>2009-08-30T05:22:47Z</time>
      </trkpt>
      <trkpt lat="44.01906" lon="1.8957">
        <ele>289</ele>
        <time>2009-08-30T05:22:53Z</time>
      </trkpt>
      <trkpt lat="44.01961" lon="1.89528">
        <ele>288</ele>
        <time>2009-08-30T05:23:06Z</time>
      </trkpt>
      <trkpt lat="44.01981" lon="1.89506">
        <ele>288</ele>
        <time>2009-08-30T05:23:12Z</time>
      </trkpt>
      <trkpt lat="44.01991" lon="1.89474">
        <ele>287</ele>
        <time>2009-08-30T05:23:18Z</time>
      </trkpt>
      <trkpt lat="44.02033" lon="1.89407">
        <ele>283</ele>
        <time>2009-08-30T05:23:31Z</time>
      </trkpt>
      <trkpt lat="44.02063" lon="1.89349">
        <ele>284</ele>
        <time>2009-08-30T05:23:40Z</time>
      </trkpt>
      <trkpt lat="44.02075" lon="1.89324">
        <ele>286</ele>
        <time>2009-08-30T05:23:44Z</time>
      </trkpt>
      <trkpt lat="44.02113" lon="1.89218">
        <ele>276</ele>
        <time>2009-08-30T05:23:57Z</time>
      </trkpt>
      <trkpt lat="44.02148" lon="1.89133">
        <ele>276</ele>
        <time>2009-08-30T05:24:08Z</time>
      </trkpt>
      <trkpt lat="44.02163" lon="1.89102">
        <ele>282</ele>
        <time>2009-08-30T05:24:17Z</time>
      </trkpt>
      <trkpt lat="44.02172" lon="1.89038">
        <ele>284</ele>
        <time>2009-08-30T05:24:32Z</time>
      </trkpt>
      <trkpt lat="44.02179" lon="1.88979">
        <ele>285</ele>
        <time>2009-08-30T05:24:46Z</time>
      </trkpt>
      <trkpt lat="44.02201" lon="1.88917">
        <ele>285</ele>
        <time>2009-08-30T05:25:03Z</time>
      </trkpt>
      <trkpt lat="44.02214" lon="1.88868">
        <ele>280</ele>
        <time>2009-08-30T05:25:14Z</time>
      </trkpt>
      <trkpt lat="44.02207" lon="1.88909">
        <ele>280</ele>
        <time>2009-08-30T05:25:18Z</time>
      </trkpt>
      <trkpt lat="44.02276" lon="1.88877">
        <ele>277</ele>
        <time>2009-08-30T05:25:32Z</time>
      </trkpt>
      <trkpt lat="44.02321" lon="1.88888">
        <ele>279</ele>
        <time>2009-08-30T05:25:45Z</time>
      </trkpt>
      <trkpt lat="44.02355" lon="1.88897">
        <ele>283</ele>
        <time>2009-08-30T05:26:01Z</time>
      </trkpt>
      <trkpt lat="44.02371" lon="1.88902">
        <ele>288</ele>
        <time>2009-08-30T05:26:13Z</time>
      </trkpt>
      <trkpt lat="44.02373" lon="1.88913">
        <ele>289</ele>
        <time>2009-08-30T05:26:19Z</time>
      </trkpt>
      <trkpt lat="44.02371" lon="1.88933">
        <ele>291</ele>
        <time>2009-08-30T05:26:27Z</time>
      </trkpt>
      <trkpt lat="44.02374" lon="1.88943">
        <ele>292</ele>
        <time>2009-08-30T05:26:31Z</time>
      </trkpt>
      <trkpt lat="44.02387" lon="1.88933">
        <ele>295</ele>
        <time>2009-08-30T05:26:39Z</time>
      </trkpt>
      <trkpt lat="44.02411" lon="1.88873">
        <ele>294</ele>
        <time>2009-08-30T05:26:55Z</time>
      </trkpt>
      <trkpt lat="44.02413" lon="1.88867">
        <ele>293</ele>
        <time>2009-08-30T05:26:56Z</time>
      </trkpt>
      <trkpt lat="44.02464" lon="1.88792">
        <ele>292</ele>
        <time>2009-08-30T05:27:10Z</time>
      </trkpt>
      <trkpt lat="44.02515" lon="1.88711">
        <ele>291</ele>
        <time>2009-08-30T05:27:26Z</time>
      </trkpt>
      <trkpt lat="44.02542" lon="1.88673">
        <ele>288</ele>
        <time>2009-08-30T05:27:36Z</time>
      </trkpt>
      <trkpt lat="44.02583" lon="1.88653">
        <ele>282</ele>
        <time>2009-08-30T05:27:44Z</time>
      </trkpt>
      <trkpt lat="44.02617" lon="1.88577">
        <ele>278</ele>
        <time>2009-08-30T05:27:54Z</time>
      </trkpt>
      <trkpt lat="44.02619" lon="1.8857">
        <ele>277</ele>
        <time>2009-08-30T05:27:55Z</time>
      </trkpt>
      <trkpt lat="44.02627" lon="1.88541">
        <ele>278</ele>
        <time>2009-08-30T05:28:01Z</time>
      </trkpt>
      <trkpt lat="44.02677" lon="1.88543">
        <ele>277</ele>
        <time>2009-08-30T05:28:08Z</time>
      </trkpt>
      <trkpt lat="44.0275" lon="1.88511">
        <ele>272</ele>
        <time>2009-08-30T05:28:22Z</time>
      </trkpt>
      <trkpt lat="44.02758" lon="1.8851">
        <ele>272</ele>
        <time>2009-08-30T05:28:24Z</time>
      </trkpt>
      <trkpt lat="44.0276" lon="1.88541">
        <ele>267</ele>
        <time>2009-08-30T05:28:31Z</time>
      </trkpt>
      <trkpt lat="44.02756" lon="1.88546">
        <ele>266</ele>
        <time>2009-08-30T05:28:32Z</time>
      </trkpt>
      <trkpt lat="44.02707" lon="1.88591">
        <ele>265</ele>
        <time>2009-08-30T05:28:43Z</time>
      </trkpt>
      <trkpt lat="44.0271" lon="1.88615">
        <ele>262</ele>
        <time>2009-08-30T05:28:48Z</time>
      </trkpt>
      <trkpt lat="44.02744" lon="1.88647">
        <ele>261</ele>
        <time>2009-08-30T05:28:59Z</time>
      </trkpt>
      <trkpt lat="44.02758" lon="1.88659">
        <ele>263</ele>
        <time>2009-08-30T05:29:10Z</time>
      </trkpt>
      <trkpt lat="44.02765" lon="1.88665">
        <ele>265</ele>
        <time>2009-08-30T05:29:16Z</time>
      </trkpt>
      <trkpt lat="44.02789" lon="1.88682">
        <ele>272</ele>
        <time>2009-08-30T05:29:31Z</time>
      </trkpt>
      <trkpt lat="44.02824" lon="1.88711">
        <ele>272</ele>
        <time>2009-08-30T05:29:46Z</time>
      </trkpt>
      <trkpt lat="44.02853" lon="1.8873">
        <ele>272</ele>
        <time>2009-08-30T05:29:59Z</time>
      </trkpt>
      <trkpt lat="44.0289" lon="1.88746">
        <ele>264</ele>
        <time>2009-08-30T05:30:12Z</time>
      </trkpt>
      <trkpt lat="44.02902" lon="1.88748">
        <ele>263</ele>
        <time>2009-08-30T05:30:14Z</time>
      </trkpt>
      <trkpt lat="44.02944" lon="1.88738">
        <ele>258</ele>
        <time>2009-08-30T05:30:21Z</time>
      </trkpt>
      <trkpt lat="44.02996" lon="1.88711">
        <ele>253</ele>
        <time>2009-08-30T05:30:31Z</time>
      </trkpt>
      <trkpt lat="44.03014" lon="1.88657">
        <ele>250</ele>
        <time>2009-08-30T05:30:41Z</time>
      </trkpt>
      <trkpt lat="44.03011" lon="1.88646">
        <ele>249</ele>
        <time>2009-08-30T05:30:43Z</time>
      </trkpt>
      <trkpt lat="44.03008" lon="1.88635">
        <ele>248</ele>
        <time>2009-08-30T05:30:45Z</time>
      </trkpt>
      <trkpt lat="44.02988" lon="1.88606">
        <ele>246</ele>
        <time>2009-08-30T05:30:52Z</time>
      </trkpt>
      <trkpt lat="44.02975" lon="1.88589">
        <ele>249</ele>
        <time>2009-08-30T05:30:56Z</time>
      </trkpt>
      <trkpt lat="44.0295" lon="1.88538">
        <ele>249</ele>
        <time>2009-08-30T05:31:09Z</time>
      </trkpt>
      <trkpt lat="44.02946" lon="1.88512">
        <ele>250</ele>
        <time>2009-08-30T05:31:14Z</time>
      </trkpt>
      <trkpt lat="44.02955" lon="1.88505">
        <ele>249</ele>
        <time>2009-08-30T05:31:18Z</time>
      </trkpt>
      <trkpt lat="44.03005" lon="1.88501">
        <ele>252</ele>
        <time>2009-08-30T05:31:32Z</time>
      </trkpt>
      <trkpt lat="44.03017" lon="1.88511">
        <ele>253</ele>
        <time>2009-08-30T05:31:41Z</time>
      </trkpt>
      <trkpt lat="44.03046" lon="1.88547">
        <ele>256</ele>
        <time>2009-08-30T05:31:58Z</time>
      </trkpt>
      <trkpt lat="44.03083" lon="1.88531">
        <ele>262</ele>
        <time>2009-08-30T05:32:11Z</time>
      </trkpt>
      <trkpt lat="44.03116" lon="1.8852">
        <ele>266</ele>
        <time>2009-08-30T05:32:26Z</time>
      </trkpt>
      <trkpt lat="44.03145" lon="1.88512">
        <ele>272</ele>
        <time>2009-08-30T05:32:42Z</time>
      </trkpt>
      <trkpt lat="44.03172" lon="1.88507">
        <ele>275</ele>
        <time>2009-08-30T05:32:56Z</time>
      </trkpt>
      <trkpt lat="44.032" lon="1.88502">
        <ele>277</ele>
        <time>2009-08-30T05:33:11Z</time>
      </trkpt>
      <trkpt lat="44.03227" lon="1.885">
        <ele>280</ele>
        <time>2009-08-30T05:33:25Z</time>
      </trkpt>
      <trkpt lat="44.03259" lon="1.88502">
        <ele>280</ele>
        <time>2009-08-30T05:33:40Z</time>
      </trkpt>
      <trkpt lat="44.03295" lon="1.88517">
        <ele>282</ele>
        <time>2009-08-30T05:33:55Z</time>
      </trkpt>
      <trkpt lat="44.03323" lon="1.88534">
        <ele>283</ele>
        <time>2009-08-30T05:34:09Z</time>
      </trkpt>
      <trkpt lat="44.03368" lon="1.88546">
        <ele>286</ele>
        <time>2009-08-30T05:34:27Z</time>
      </trkpt>
      <trkpt lat="44.03401" lon="1.8857">
        <ele>290</ele>
        <time>2009-08-30T05:34:42Z</time>
      </trkpt>
      <trkpt lat="44.03434" lon="1.88602">
        <ele>294</ele>
        <time>2009-08-30T05:34:59Z</time>
      </trkpt>
      <trkpt lat="44.03466" lon="1.88627">
        <ele>297</ele>
        <time>2009-08-30T05:35:14Z</time>
      </trkpt>
      <trkpt lat="44.03515" lon="1.88666">
        <ele>294</ele>
        <time>2009-08-30T05:35:29Z</time>
      </trkpt>
      <trkpt lat="44.03598" lon="1.88719">
        <ele>293</ele>
        <time>2009-08-30T05:35:46Z</time>
      </trkpt>
      <trkpt lat="44.03665" lon="1.88737">
        <ele>294</ele>
        <time>2009-08-30T05:36:01Z</time>
      </trkpt>
      <trkpt lat="44.03683" lon="1.88737">
        <ele>294</ele>
        <time>2009-08-30T05:36:05Z</time>
      </trkpt>
      <trkpt lat="44.03701" lon="1.8874">
        <ele>293</ele>
        <time>2009-08-30T05:36:09Z</time>
      </trkpt>
      <trkpt lat="44.0375" lon="1.88787">
        <ele>294</ele>
        <time>2009-08-30T05:36:23Z</time>
      </trkpt>
      <trkpt lat="44.03792" lon="1.88814">
        <ele>296</ele>
        <time>2009-08-30T05:36:36Z</time>
      </trkpt>
      <trkpt lat="44.03792" lon="1.888">
        <ele>297</ele>
        <time>2009-08-30T05:36:40Z</time>
      </trkpt>
      <trkpt lat="44.03796" lon="1.88731">
        <ele>299</ele>
        <time>2009-08-30T05:36:56Z</time>
      </trkpt>
      <trkpt lat="44.03824" lon="1.88689">
        <ele>301</ele>
        <time>2009-08-30T05:37:07Z</time>
      </trkpt>
      <trkpt lat="44.03838" lon="1.88665">
        <ele>300</ele>
        <time>2009-08-30T05:37:13Z</time>
      </trkpt>
      <trkpt lat="44.0386" lon="1.88574">
        <ele>297</ele>
        <time>2009-08-30T05:37:25Z</time>
      </trkpt>
      <trkpt lat="44.03865" lon="1.88545">
        <ele>296</ele>
        <time>2009-08-30T05:37:29Z</time>
      </trkpt>
      <trkpt lat="44.03872" lon="1.88455">
        <ele>297</ele>
        <time>2009-08-30T05:37:44Z</time>
      </trkpt>
      <trkpt lat="44.03877" lon="1.88407">
        <ele>296</ele>
        <time>2009-08-30T05:37:51Z</time>
      </trkpt>
      <trkpt lat="44.03877" lon="1.88389">
        <ele>299</ele>
        <time>2009-08-30T05:37:54Z</time>
      </trkpt>
      <trkpt lat="44.03909" lon="1.88329">
        <ele>300</ele>
        <time>2009-08-30T05:37:56Z</time>
      </trkpt>
      <trkpt lat="44.03881" lon="1.88341">
        <ele>299</ele>
        <time>2009-08-30T05:38:02Z</time>
      </trkpt>
      <trkpt lat="44.03895" lon="1.88313">
        <ele>301</ele>
        <time>2009-08-30T05:38:05Z</time>
      </trkpt>
      <trkpt lat="44.03892" lon="1.88285">
        <ele>292</ele>
        <time>2009-08-30T05:38:09Z</time>
      </trkpt>
      <trkpt lat="44.03888" lon="1.88259">
        <ele>291</ele>
        <time>2009-08-30T05:38:12Z</time>
      </trkpt>
      <trkpt lat="44.039" lon="1.88227">
        <ele>288</ele>
        <time>2009-08-30T05:38:17Z</time>
      </trkpt>
      <trkpt lat="44.03925" lon="1.88208">
        <ele>287</ele>
        <time>2009-08-30T05:38:22Z</time>
      </trkpt>
      <trkpt lat="44.03957" lon="1.88182">
        <ele>287</ele>
        <time>2009-08-30T05:38:30Z</time>
      </trkpt>
      <trkpt lat="44.03977" lon="1.88203">
        <ele>287</ele>
        <time>2009-08-30T05:38:36Z</time>
      </trkpt>
      <trkpt lat="44.04014" lon="1.8826">
        <ele>279</ele>
        <time>2009-08-30T05:38:38Z</time>
      </trkpt>
      <trkpt lat="44.0405" lon="1.88322">
        <ele>280</ele>
        <time>2009-08-30T05:38:52Z</time>
      </trkpt>
      <trkpt lat="44.0407" lon="1.88343">
        <ele>282</ele>
        <time>2009-08-30T05:39:06Z</time>
      </trkpt>
      <trkpt lat="44.04084" lon="1.88343">
        <ele>284</ele>
        <time>2009-08-30T05:39:16Z</time>
      </trkpt>
      <trkpt lat="44.04102" lon="1.88334">
        <ele>286</ele>
        <time>2009-08-30T05:39:20Z</time>
      </trkpt>
      <trkpt lat="44.04097" lon="1.88321">
        <ele>285</ele>
        <time>2009-08-30T05:39:26Z</time>
      </trkpt>
      <trkpt lat="44.0409" lon="1.8829">
        <ele>283</ele>
        <time>2009-08-30T05:39:41Z</time>
      </trkpt>
      <trkpt lat="44.04083" lon="1.88259">
        <ele>283</ele>
        <time>2009-08-30T05:39:54Z</time>
      </trkpt>
      <trkpt lat="44.0407" lon="1.88222">
        <ele>282</ele>
        <time>2009-08-30T05:39:55Z</time>
      </trkpt>
      <trkpt lat="44.0406" lon="1.88178">
        <ele>291</ele>
        <time>2009-08-30T05:40:03Z</time>
      </trkpt>
      <trkpt lat="44.04053" lon="1.88155">
        <ele>295</ele>
        <time>2009-08-30T05:40:10Z</time>
      </trkpt>
      <trkpt lat="44.04048" lon="1.88123">
        <ele>297</ele>
        <time>2009-08-30T05:40:18Z</time>
      </trkpt>
      <trkpt lat="44.04077" lon="1.88111">
        <ele>296</ele>
        <time>2009-08-30T05:40:31Z</time>
      </trkpt>
      <trkpt lat="44.04102" lon="1.88087">
        <ele>297</ele>
        <time>2009-08-30T05:40:43Z</time>
      </trkpt>
      <trkpt lat="44.04136" lon="1.88087">
        <ele>298</ele>
        <time>2009-08-30T05:40:56Z</time>
      </trkpt>
      <trkpt lat="44.04178" lon="1.88084">
        <ele>296</ele>
        <time>2009-08-30T05:41:10Z</time>
      </trkpt>
      <trkpt lat="44.04215" lon="1.88076">
        <ele>292</ele>
        <time>2009-08-30T05:41:21Z</time>
      </trkpt>
      <trkpt lat="44.04254" lon="1.88056">
        <ele>294</ele>
        <time>2009-08-30T05:41:36Z</time>
      </trkpt>
      <trkpt lat="44.04291" lon="1.88042">
        <ele>297</ele>
        <time>2009-08-30T05:41:51Z</time>
      </trkpt>
      <trkpt lat="44.04328" lon="1.88038">
        <ele>299</ele>
        <time>2009-08-30T05:42:06Z</time>
      </trkpt>
      <trkpt lat="44.04356" lon="1.88035">
        <ele>299</ele>
        <time>2009-08-30T05:42:16Z</time>
      </trkpt>
      <trkpt lat="44.0436" lon="1.88022">
        <ele>298</ele>
        <time>2009-08-30T05:42:20Z</time>
      </trkpt>
      <trkpt lat="44.04356" lon="1.87952">
        <ele>300</ele>
        <time>2009-08-30T05:42:37Z</time>
      </trkpt>
      <trkpt lat="44.04354" lon="1.87926">
        <ele>302</ele>
        <time>2009-08-30T05:42:43Z</time>
      </trkpt>
      <trkpt lat="44.04367" lon="1.87918">
        <ele>303</ele>
        <time>2009-08-30T05:42:48Z</time>
      </trkpt>
      <trkpt lat="44.04418" lon="1.87927">
        <ele>304</ele>
        <time>2009-08-30T05:43:04Z</time>
      </trkpt>
      <trkpt lat="44.04446" lon="1.87889">
        <ele>305</ele>
        <time>2009-08-30T05:43:16Z</time>
      </trkpt>
      <trkpt lat="44.04483" lon="1.8784">
        <ele>303</ele>
        <time>2009-08-30T05:43:31Z</time>
      </trkpt>
      <trkpt lat="44.04526" lon="1.87742">
        <ele>302</ele>
        <time>2009-08-30T05:43:49Z</time>
      </trkpt>
      <trkpt lat="44.04561" lon="1.87667">
        <ele>300</ele>
        <time>2009-08-30T05:44:03Z</time>
      </trkpt>
      <trkpt lat="44.04607" lon="1.87564">
        <ele>296</ele>
        <time>2009-08-30T05:44:21Z</time>
      </trkpt>
      <trkpt lat="44.04653" lon="1.87459">
        <ele>297</ele>
        <time>2009-08-30T05:44:39Z</time>
      </trkpt>
      <trkpt lat="44.04663" lon="1.87428">
        <ele>297</ele>
        <time>2009-08-30T05:44:45Z</time>
      </trkpt>
      <trkpt lat="44.04698" lon="1.8732">
        <ele>294</ele>
        <time>2009-08-30T05:45:04Z</time>
      </trkpt>
      <trkpt lat="44.04723" lon="1.87205">
        <ele>293</ele>
        <time>2009-08-30T05:45:22Z</time>
      </trkpt>
      <trkpt lat="44.04728" lon="1.87181">
        <ele>293</ele>
        <time>2009-08-30T05:45:26Z</time>
      </trkpt>
      <trkpt lat="44.04739" lon="1.8714">
        <ele>296</ele>
        <time>2009-08-30T05:45:34Z</time>
      </trkpt>
      <trkpt lat="44.04748" lon="1.87061">
        <ele>303</ele>
        <time>2009-08-30T05:45:49Z</time>
      </trkpt>
      <trkpt lat="44.04756" lon="1.86989">
        <ele>302</ele>
        <time>2009-08-30T05:46:01Z</time>
      </trkpt>
      <trkpt lat="44.04784" lon="1.86906">
        <ele>292</ele>
        <time>2009-08-30T05:46:13Z</time>
      </trkpt>
      <trkpt lat="44.0479" lon="1.8687">
        <ele>289</ele>
        <time>2009-08-30T05:46:18Z</time>
      </trkpt>
      <trkpt lat="44.04791" lon="1.86844">
        <ele>285</ele>
        <time>2009-08-30T05:46:22Z</time>
      </trkpt>
      <trkpt lat="44.0479" lon="1.86771">
        <ele>271</ele>
        <time>2009-08-30T05:46:36Z</time>
      </trkpt>
      <trkpt lat="44.04789" lon="1.86766">
        <ele>270</ele>
        <time>2009-08-30T05:46:37Z</time>
      </trkpt>
      <trkpt lat="44.04776" lon="1.86736">
        <ele>269</ele>
        <time>2009-08-30T05:46:42Z</time>
      </trkpt>
      <trkpt lat="44.04762" lon="1.86704">
        <ele>267</ele>
        <time>2009-08-30T05:46:46Z</time>
      </trkpt>
      <trkpt lat="44.04738" lon="1.86674">
        <ele>268</ele>
        <time>2009-08-30T05:46:54Z</time>
      </trkpt>
      <trkpt lat="44.04727" lon="1.86688">
        <ele>268</ele>
        <time>2009-08-30T05:46:58Z</time>
      </trkpt>
      <trkpt lat="44.0469" lon="1.86702">
        <ele>266</ele>
        <time>2009-08-30T05:47:05Z</time>
      </trkpt>
      <trkpt lat="44.0467" lon="1.86671">
        <ele>267</ele>
        <time>2009-08-30T05:47:15Z</time>
      </trkpt>
      <trkpt lat="44.04659" lon="1.86638">
        <ele>270</ele>
        <time>2009-08-30T05:47:25Z</time>
      </trkpt>
      <trkpt lat="44.04646" lon="1.86623">
        <ele>268</ele>
        <time>2009-08-30T05:47:30Z</time>
      </trkpt>
      <trkpt lat="44.04586" lon="1.86582">
        <ele>265</ele>
        <time>2009-08-30T05:47:43Z</time>
      </trkpt>
      <trkpt lat="44.04547" lon="1.86559">
        <ele>261</ele>
        <time>2009-08-30T05:47:51Z</time>
      </trkpt>
      <trkpt lat="44.04526" lon="1.86556">
        <ele>264</ele>
        <time>2009-08-30T05:48:04Z</time>
      </trkpt>
      <trkpt lat="44.04514" lon="1.86533">
        <ele>265</ele>
        <time>2009-08-30T05:48:11Z</time>
      </trkpt>
      <trkpt lat="44.04504" lon="1.86499">
        <ele>264</ele>
        <time>2009-08-30T05:48:18Z</time>
      </trkpt>
      <trkpt lat="44.04483" lon="1.86471">
        <ele>258</ele>
        <time>2009-08-30T05:48:25Z</time>
      </trkpt>
      <trkpt lat="44.04424" lon="1.86428">
        <ele>247</ele>
        <time>2009-08-30T05:48:40Z</time>
      </trkpt>
      <trkpt lat="44.04422" lon="1.86422">
        <ele>248</ele>
        <time>2009-08-30T05:48:42Z</time>
      </trkpt>
      <trkpt lat="44.04427" lon="1.86397">
        <ele>248</ele>
        <time>2009-08-30T05:48:47Z</time>
      </trkpt>
      <trkpt lat="44.04431" lon="1.86369">
        <ele>244</ele>
        <time>2009-08-30T05:48:51Z</time>
      </trkpt>
      <trkpt lat="44.04431" lon="1.86354">
        <ele>242</ele>
        <time>2009-08-30T05:48:53Z</time>
      </trkpt>
      <trkpt lat="44.04442" lon="1.86315">
        <ele>244</ele>
        <time>2009-08-30T05:48:59Z</time>
      </trkpt>
      <trkpt lat="44.04449" lon="1.86292">
        <ele>243</ele>
        <time>2009-08-30T05:49:03Z</time>
      </trkpt>
      <trkpt lat="44.04451" lon="1.86276">
        <ele>242</ele>
        <time>2009-08-30T05:49:06Z</time>
      </trkpt>
      <trkpt lat="44.04459" lon="1.86271">
        <ele>240</ele>
        <time>2009-08-30T05:49:10Z</time>
      </trkpt>
      <trkpt lat="44.04491" lon="1.86273">
        <ele>240</ele>
        <time>2009-08-30T05:49:18Z</time>
      </trkpt>
      <trkpt lat="44.04508" lon="1.8628">
        <ele>240</ele>
        <time>2009-08-30T05:49:22Z</time>
      </trkpt>
      <trkpt lat="44.04561" lon="1.86326">
        <ele>239</ele>
        <time>2009-08-30T05:49:35Z</time>
      </trkpt>
      <trkpt lat="44.04573" lon="1.86356">
        <ele>240</ele>
        <time>2009-08-30T05:49:41Z</time>
      </trkpt>
      <trkpt lat="44.04594" lon="1.86405">
        <ele>242</ele>
        <time>2009-08-30T05:49:53Z</time>
      </trkpt>
      <trkpt lat="44.04627" lon="1.86442">
        <ele>243</ele>
        <time>2009-08-30T05:50:05Z</time>
      </trkpt>
      <trkpt lat="44.0466" lon="1.86478">
        <ele>241</ele>
        <time>2009-08-30T05:50:16Z</time>
      </trkpt>
      <trkpt lat="44.04694" lon="1.865">
        <ele>240</ele>
        <time>2009-08-30T05:50:27Z</time>
      </trkpt>
      <trkpt lat="44.04726" lon="1.86499">
        <ele>240</ele>
        <time>2009-08-30T05:50:39Z</time>
      </trkpt>
      <trkpt lat="44.04758" lon="1.86496">
        <ele>244</ele>
        <time>2009-08-30T05:50:53Z</time>
      </trkpt>
      <trkpt lat="44.04793" lon="1.86508">
        <ele>251</ele>
        <time>2009-08-30T05:51:08Z</time>
      </trkpt>
      <trkpt lat="44.04814" lon="1.86566">
        <ele>254</ele>
        <time>2009-08-30T05:51:20Z</time>
      </trkpt>
      <trkpt lat="44.04812" lon="1.86609">
        <ele>256</ele>
        <time>2009-08-30T05:51:30Z</time>
      </trkpt>
      <trkpt lat="44.04817" lon="1.86667">
        <ele>255</ele>
        <time>2009-08-30T05:51:42Z</time>
      </trkpt>
      <trkpt lat="44.04839" lon="1.8669">
        <ele>257</ele>
        <time>2009-08-30T05:51:51Z</time>
      </trkpt>
      <trkpt lat="44.04861" lon="1.86717">
        <ele>258</ele>
        <time>2009-08-30T05:52:01Z</time>
      </trkpt>
      <trkpt lat="44.04894" lon="1.86764">
        <ele>257</ele>
        <time>2009-08-30T05:52:13Z</time>
      </trkpt>
      <trkpt lat="44.04917" lon="1.868">
        <ele>255</ele>
        <time>2009-08-30T05:52:25Z</time>
      </trkpt>
      <trkpt lat="44.04933" lon="1.86818">
        <ele>253</ele>
        <time>2009-08-30T05:52:36Z</time>
      </trkpt>
      <trkpt lat="44.04937" lon="1.86819">
        <ele>253</ele>
        <time>2009-08-30T05:52:40Z</time>
      </trkpt>
      <trkpt lat="44.0496" lon="1.86813">
        <ele>256</ele>
        <time>2009-08-30T05:52:51Z</time>
      </trkpt>
      <trkpt lat="44.04985" lon="1.86785">
        <ele>261</ele>
        <time>2009-08-30T05:53:03Z</time>
      </trkpt>
      <trkpt lat="44.05009" lon="1.86761">
        <ele>268</ele>
        <time>2009-08-30T05:53:16Z</time>
      </trkpt>
      <trkpt lat="44.05034" lon="1.86748">
        <ele>279</ele>
        <time>2009-08-30T05:53:27Z</time>
      </trkpt>
      <trkpt lat="44.05065" lon="1.8674">
        <ele>281</ele>
        <time>2009-08-30T05:53:37Z</time>
      </trkpt>
      <trkpt lat="44.05094" lon="1.86732">
        <ele>282</ele>
        <time>2009-08-30T05:53:48Z</time>
      </trkpt>
      <trkpt lat="44.05129" lon="1.8673">
        <ele>284</ele>
        <time>2009-08-30T05:53:59Z</time>
      </trkpt>
      <trkpt lat="44.05158" lon="1.8673">
        <ele>284</ele>
        <time>2009-08-30T05:54:09Z</time>
      </trkpt>
      <trkpt lat="44.05204" lon="1.86739">
        <ele>285</ele>
        <time>2009-08-30T05:54:23Z</time>
      </trkpt>
      <trkpt lat="44.05242" lon="1.86724">
        <ele>282</ele>
        <time>2009-08-30T05:54:38Z</time>
      </trkpt>
      <trkpt lat="44.05247" lon="1.86722">
        <ele>280</ele>
        <time>2009-08-30T05:54:52Z</time>
      </trkpt>
      <trkpt lat="44.05247" lon="1.86722">
        <ele>280</ele>
        <time>2009-08-30T05:54:53Z</time>
      </trkpt>
      <trkpt lat="44.05247" lon="1.86722">
        <ele>280</ele>
        <time>2009-08-30T05:55:01Z</time>
      </trkpt>
      <trkpt lat="44.05247" lon="1.86722">
        <ele>279</ele>
        <time>2009-08-30T05:55:09Z</time>
      </trkpt>
      <trkpt lat="44.05213" lon="1.86698">
        <ele>282</ele>
        <time>2009-08-30T05:55:23Z</time>
      </trkpt>
      <trkpt lat="44.05209" lon="1.86667">
        <ele>285</ele>
        <time>2009-08-30T05:55:36Z</time>
      </trkpt>
      <trkpt lat="44.05205" lon="1.86613">
        <ele>289</ele>
        <time>2009-08-30T05:55:50Z</time>
      </trkpt>
      <trkpt lat="44.05194" lon="1.86566">
        <ele>288</ele>
        <time>2009-08-30T05:56:03Z</time>
      </trkpt>
      <trkpt lat="44.05179" lon="1.8651">
        <ele>288</ele>
        <time>2009-08-30T05:56:18Z</time>
      </trkpt>
      <trkpt lat="44.05161" lon="1.86454">
        <ele>289</ele>
        <time>2009-08-30T05:56:33Z</time>
      </trkpt>
      <trkpt lat="44.05146" lon="1.86412">
        <ele>293</ele>
        <time>2009-08-30T05:56:47Z</time>
      </trkpt>
      <trkpt lat="44.05128" lon="1.86357">
        <ele>295</ele>
        <time>2009-08-30T05:57:04Z</time>
      </trkpt>
      <trkpt lat="44.05123" lon="1.86313">
        <ele>294</ele>
        <time>2009-08-30T05:57:14Z</time>
      </trkpt>
      <trkpt lat="44.05177" lon="1.86284">
        <ele>295</ele>
        <time>2009-08-30T05:57:28Z</time>
      </trkpt>
      <trkpt lat="44.0521" lon="1.86271">
        <ele>300</ele>
        <time>2009-08-30T05:57:43Z</time>
      </trkpt>
      <trkpt lat="44.05246" lon="1.8625">
        <ele>303</ele>
        <time>2009-08-30T05:58:02Z</time>
      </trkpt>
      <trkpt lat="44.05273" lon="1.86215">
        <ele>301</ele>
        <time>2009-08-30T05:58:16Z</time>
      </trkpt>
      <trkpt lat="44.05286" lon="1.86197">
        <ele>302</ele>
        <time>2009-08-30T05:58:21Z</time>
      </trkpt>
      <trkpt lat="44.05327" lon="1.86139">
        <ele>302</ele>
        <time>2009-08-30T05:58:38Z</time>
      </trkpt>
      <trkpt lat="44.05365" lon="1.86097">
        <ele>303</ele>
        <time>2009-08-30T05:58:53Z</time>
      </trkpt>
      <trkpt lat="44.05386" lon="1.86069">
        <ele>305</ele>
        <time>2009-08-30T05:59:06Z</time>
      </trkpt>
      <trkpt lat="44.0541" lon="1.86039">
        <ele>308</ele>
        <time>2009-08-30T05:59:21Z</time>
      </trkpt>
      <trkpt lat="44.05436" lon="1.86006">
        <ele>311</ele>
        <time>2009-08-30T05:59:38Z</time>
      </trkpt>
      <trkpt lat="44.05456" lon="1.85983">
        <ele>315</ele>
        <time>2009-08-30T05:59:52Z</time>
      </trkpt>
      <trkpt lat="44.05472" lon="1.8596">
        <ele>320</ele>
        <time>2009-08-30T06:00:07Z</time>
      </trkpt>
      <trkpt lat="44.05489" lon="1.85936">
        <ele>323</ele>
        <time>2009-08-30T06:00:21Z</time>
      </trkpt>
      <trkpt lat="44.05506" lon="1.85911">
        <ele>325</ele>
        <time>2009-08-30T06:00:35Z</time>
      </trkpt>
      <trkpt lat="44.05535" lon="1.85881">
        <ele>328</ele>
        <time>2009-08-30T06:00:51Z</time>
      </trkpt>
      <trkpt lat="44.05569" lon="1.85855">
        <ele>331</ele>
        <time>2009-08-30T06:01:09Z</time>
      </trkpt>
      <trkpt lat="44.05595" lon="1.85835">
        <ele>334</ele>
        <time>2009-08-30T06:01:23Z</time>
      </trkpt>
      <trkpt lat="44.05626" lon="1.85805">
        <ele>337</ele>
        <time>2009-08-30T06:01:40Z</time>
      </trkpt>
      <trkpt lat="44.05659" lon="1.85803">
        <ele>339</ele>
        <time>2009-08-30T06:01:54Z</time>
      </trkpt>
      <trkpt lat="44.0569" lon="1.8579">
        <ele>342</ele>
        <time>2009-08-30T06:02:08Z</time>
      </trkpt>
      <trkpt lat="44.05717" lon="1.85782">
        <ele>347</ele>
        <time>2009-08-30T06:02:24Z</time>
      </trkpt>
      <trkpt lat="44.05717" lon="1.85782">
        <ele>347</ele>
        <time>2009-08-30T06:02:40Z</time>
      </trkpt>
      <trkpt lat="44.05717" lon="1.85782">
        <ele>345</ele>
        <time>2009-08-30T06:03:19Z</time>
      </trkpt>
      <trkpt lat="44.05717" lon="1.85782">
        <ele>347</ele>
        <time>2009-08-30T06:08:11Z</time>
      </trkpt>
      <trkpt lat="44.05717" lon="1.85782">
        <ele>347</ele>
        <time>2009-08-30T06:08:12Z</time>
      </trkpt>
      <trkpt lat="44.05779" lon="1.85764">
        <ele>349</ele>
        <time>2009-08-30T06:08:28Z</time>
      </trkpt>
      <trkpt lat="44.0578" lon="1.85763">
        <ele>349</ele>
        <time>2009-08-30T06:08:29Z</time>
      </trkpt>
      <trkpt lat="44.0581" lon="1.85741">
        <ele>351</ele>
        <time>2009-08-30T06:08:45Z</time>
      </trkpt>
      <trkpt lat="44.05838" lon="1.8572">
        <ele>350</ele>
        <time>2009-08-30T06:09:00Z</time>
      </trkpt>
      <trkpt lat="44.05878" lon="1.85703">
        <ele>354</ele>
        <time>2009-08-30T06:09:18Z</time>
      </trkpt>
      <trkpt lat="44.0591" lon="1.85703">
        <ele>354</ele>
        <time>2009-08-30T06:09:30Z</time>
      </trkpt>
      <trkpt lat="44.05949" lon="1.85691">
        <ele>354</ele>
        <time>2009-08-30T06:09:44Z</time>
      </trkpt>
      <trkpt lat="44.05986" lon="1.85684">
        <ele>355</ele>
        <time>2009-08-30T06:09:56Z</time>
      </trkpt>
      <trkpt lat="44.06026" lon="1.85693">
        <ele>356</ele>
        <time>2009-08-30T06:10:08Z</time>
      </trkpt>
      <trkpt lat="44.06074" lon="1.85693">
        <ele>357</ele>
        <time>2009-08-30T06:10:23Z</time>
      </trkpt>
      <trkpt lat="44.06122" lon="1.85683">
        <ele>358</ele>
        <time>2009-08-30T06:10:40Z</time>
      </trkpt>
      <trkpt lat="44.06167" lon="1.85678">
        <ele>359</ele>
        <time>2009-08-30T06:10:56Z</time>
      </trkpt>
      <trkpt lat="44.06211" lon="1.8567">
        <ele>360</ele>
        <time>2009-08-30T06:11:11Z</time>
      </trkpt>
      <trkpt lat="44.06259" lon="1.85671">
        <ele>363</ele>
        <time>2009-08-30T06:11:27Z</time>
      </trkpt>
      <trkpt lat="44.06302" lon="1.85659">
        <ele>364</ele>
        <time>2009-08-30T06:11:40Z</time>
      </trkpt>
      <trkpt lat="44.06358" lon="1.85639">
        <ele>363</ele>
        <time>2009-08-30T06:11:57Z</time>
      </trkpt>
      <trkpt lat="44.064" lon="1.85633">
        <ele>366</ele>
        <time>2009-08-30T06:12:10Z</time>
      </trkpt>
      <trkpt lat="44.06444" lon="1.85616">
        <ele>370</ele>
        <time>2009-08-30T06:12:24Z</time>
      </trkpt>
      <trkpt lat="44.06476" lon="1.85572">
        <ele>369</ele>
        <time>2009-08-30T06:12:37Z</time>
      </trkpt>
      <trkpt lat="44.06485" lon="1.8553">
        <ele>371</ele>
        <time>2009-08-30T06:12:47Z</time>
      </trkpt>
      <trkpt lat="44.06505" lon="1.85493">
        <ele>369</ele>
        <time>2009-08-30T06:12:57Z</time>
      </trkpt>
      <trkpt lat="44.06538" lon="1.85434">
        <ele>370</ele>
        <time>2009-08-30T06:13:12Z</time>
      </trkpt>
      <trkpt lat="44.06556" lon="1.85377">
        <ele>372</ele>
        <time>2009-08-30T06:13:26Z</time>
      </trkpt>
      <trkpt lat="44.06549" lon="1.85341">
        <ele>371</ele>
        <time>2009-08-30T06:13:34Z</time>
      </trkpt>
      <trkpt lat="44.06539" lon="1.85312">
        <ele>358</ele>
        <time>2009-08-30T06:13:38Z</time>
      </trkpt>
      <trkpt lat="44.06536" lon="1.85275">
        <ele>356</ele>
        <time>2009-08-30T06:13:44Z</time>
      </trkpt>
      <trkpt lat="44.06533" lon="1.85246">
        <ele>363</ele>
        <time>2009-08-30T06:13:51Z</time>
      </trkpt>
      <trkpt lat="44.0653" lon="1.85221">
        <ele>364</ele>
        <time>2009-08-30T06:13:55Z</time>
      </trkpt>
      <trkpt lat="44.06527" lon="1.85204">
        <ele>364</ele>
        <time>2009-08-30T06:13:58Z</time>
      </trkpt>
      <trkpt lat="44.06517" lon="1.85103">
        <ele>367</ele>
        <time>2009-08-30T06:14:15Z</time>
      </trkpt>
      <trkpt lat="44.06522" lon="1.85052">
        <ele>370</ele>
        <time>2009-08-30T06:14:28Z</time>
      </trkpt>
      <trkpt lat="44.06531" lon="1.85012">
        <ele>373</ele>
        <time>2009-08-30T06:14:40Z</time>
      </trkpt>
      <trkpt lat="44.06546" lon="1.84987">
        <ele>379</ele>
        <time>2009-08-30T06:14:52Z</time>
      </trkpt>
      <trkpt lat="44.06563" lon="1.84954">
        <ele>385</ele>
        <time>2009-08-30T06:15:07Z</time>
      </trkpt>
      <trkpt lat="44.0657" lon="1.84942">
        <ele>389</ele>
        <time>2009-08-30T06:15:15Z</time>
      </trkpt>
      <trkpt lat="44.06587" lon="1.84907">
        <ele>391</ele>
        <time>2009-08-30T06:15:30Z</time>
      </trkpt>
      <trkpt lat="44.066" lon="1.84869">
        <ele>389</ele>
        <time>2009-08-30T06:15:44Z</time>
      </trkpt>
      <trkpt lat="44.0661" lon="1.84823">
        <ele>388</ele>
        <time>2009-08-30T06:15:58Z</time>
      </trkpt>
      <trkpt lat="44.0663" lon="1.84758">
        <ele>384</ele>
        <time>2009-08-30T06:16:13Z</time>
      </trkpt>
      <trkpt lat="44.06659" lon="1.84703">
        <ele>381</ele>
        <time>2009-08-30T06:16:26Z</time>
      </trkpt>
      <trkpt lat="44.06692" lon="1.84638">
        <ele>380</ele>
        <time>2009-08-30T06:16:41Z</time>
      </trkpt>
      <trkpt lat="44.06696" lon="1.84632">
        <ele>380</ele>
        <time>2009-08-30T06:16:43Z</time>
      </trkpt>
      <trkpt lat="44.0672" lon="1.84613">
        <ele>381</ele>
        <time>2009-08-30T06:16:49Z</time>
      </trkpt>
      <trkpt lat="44.06736" lon="1.84601">
        <ele>380</ele>
        <time>2009-08-30T06:16:53Z</time>
      </trkpt>
      <trkpt lat="44.06788" lon="1.84558">
        <ele>379</ele>
        <time>2009-08-30T06:17:07Z</time>
      </trkpt>
      <trkpt lat="44.06795" lon="1.84548">
        <ele>380</ele>
        <time>2009-08-30T06:17:10Z</time>
      </trkpt>
      <trkpt lat="44.06816" lon="1.845">
        <ele>383</ele>
        <time>2009-08-30T06:17:22Z</time>
      </trkpt>
      <trkpt lat="44.06821" lon="1.84489">
        <ele>384</ele>
        <time>2009-08-30T06:17:25Z</time>
      </trkpt>
      <trkpt lat="44.06831" lon="1.84472">
        <ele>381</ele>
        <time>2009-08-30T06:17:32Z</time>
      </trkpt>
      <trkpt lat="44.06847" lon="1.84447">
        <ele>380</ele>
        <time>2009-08-30T06:17:37Z</time>
      </trkpt>
      <trkpt lat="44.06855" lon="1.84383">
        <ele>377</ele>
        <time>2009-08-30T06:17:43Z</time>
      </trkpt>
      <trkpt lat="44.06839" lon="1.84317">
        <ele>373</ele>
        <time>2009-08-30T06:17:54Z</time>
      </trkpt>
      <trkpt lat="44.06827" lon="1.84275">
        <ele>371</ele>
        <time>2009-08-30T06:18:00Z</time>
      </trkpt>
      <trkpt lat="44.06752" lon="1.84269">
        <ele>367</ele>
        <time>2009-08-30T06:18:05Z</time>
      </trkpt>
      <trkpt lat="44.06739" lon="1.84251">
        <ele>365</ele>
        <time>2009-08-30T06:18:09Z</time>
      </trkpt>
      <trkpt lat="44.06715" lon="1.84211">
        <ele>359</ele>
        <time>2009-08-30T06:18:17Z</time>
      </trkpt>
      <trkpt lat="44.06717" lon="1.842">
        <ele>357</ele>
        <time>2009-08-30T06:18:19Z</time>
      </trkpt>
      <trkpt lat="44.06715" lon="1.84153">
        <ele>352</ele>
        <time>2009-08-30T06:18:29Z</time>
      </trkpt>
      <trkpt lat="44.0669" lon="1.84137">
        <ele>348</ele>
        <time>2009-08-30T06:18:36Z</time>
      </trkpt>
      <trkpt lat="44.06645" lon="1.84134">
        <ele>344</ele>
        <time>2009-08-30T06:18:48Z</time>
      </trkpt>
      <trkpt lat="44.06607" lon="1.84131">
        <ele>344</ele>
        <time>2009-08-30T06:18:58Z</time>
      </trkpt>
      <trkpt lat="44.0658" lon="1.84146">
        <ele>338</ele>
        <time>2009-08-30T06:19:04Z</time>
      </trkpt>
      <trkpt lat="44.06565" lon="1.84158">
        <ele>337</ele>
        <time>2009-08-30T06:19:07Z</time>
      </trkpt>
      <trkpt lat="44.06556" lon="1.84167">
        <ele>336</ele>
        <time>2009-08-30T06:19:09Z</time>
      </trkpt>
      <trkpt lat="44.06519" lon="1.84203">
        <ele>330</ele>
        <time>2009-08-30T06:19:20Z</time>
      </trkpt>
      <trkpt lat="44.06482" lon="1.84222">
        <ele>328</ele>
        <time>2009-08-30T06:19:30Z</time>
      </trkpt>
      <trkpt lat="44.06442" lon="1.84266">
        <ele>330</ele>
        <time>2009-08-30T06:19:41Z</time>
      </trkpt>
      <trkpt lat="44.06423" lon="1.84287">
        <ele>327</ele>
        <time>2009-08-30T06:19:46Z</time>
      </trkpt>
      <trkpt lat="44.06382" lon="1.84328">
        <ele>329</ele>
        <time>2009-08-30T06:19:56Z</time>
      </trkpt>
      <trkpt lat="44.06355" lon="1.84339">
        <ele>334</ele>
        <time>2009-08-30T06:20:10Z</time>
      </trkpt>
      <trkpt lat="44.06328" lon="1.84359">
        <ele>336</ele>
        <time>2009-08-30T06:20:22Z</time>
      </trkpt>
      <trkpt lat="44.063" lon="1.84391">
        <ele>340</ele>
        <time>2009-08-30T06:20:36Z</time>
      </trkpt>
      <trkpt lat="44.06284" lon="1.84426">
        <ele>342</ele>
        <time>2009-08-30T06:20:50Z</time>
      </trkpt>
      <trkpt lat="44.06269" lon="1.8445">
        <ele>342</ele>
        <time>2009-08-30T06:21:03Z</time>
      </trkpt>
      <trkpt lat="44.06246" lon="1.84447">
        <ele>344</ele>
        <time>2009-08-30T06:21:20Z</time>
      </trkpt>
      <trkpt lat="44.06225" lon="1.84444">
        <ele>347</ele>
        <time>2009-08-30T06:21:36Z</time>
      </trkpt>
      <trkpt lat="44.06219" lon="1.84443">
        <ele>347</ele>
        <time>2009-08-30T06:21:39Z</time>
      </trkpt>
      <trkpt lat="44.06195" lon="1.84442">
        <ele>350</ele>
        <time>2009-08-30T06:21:57Z</time>
      </trkpt>
      <trkpt lat="44.06173" lon="1.84445">
        <ele>355</ele>
        <time>2009-08-30T06:22:11Z</time>
      </trkpt>
      <trkpt lat="44.06152" lon="1.84451">
        <ele>357</ele>
        <time>2009-08-30T06:22:25Z</time>
      </trkpt>
      <trkpt lat="44.06118" lon="1.84456">
        <ele>359</ele>
        <time>2009-08-30T06:22:40Z</time>
      </trkpt>
      <trkpt lat="44.06082" lon="1.84467">
        <ele>360</ele>
        <time>2009-08-30T06:22:53Z</time>
      </trkpt>
      <trkpt lat="44.06045" lon="1.84493">
        <ele>362</ele>
        <time>2009-08-30T06:23:07Z</time>
      </trkpt>
      <trkpt lat="44.06011" lon="1.84498">
        <ele>363</ele>
        <time>2009-08-30T06:23:19Z</time>
      </trkpt>
      <trkpt lat="44.05976" lon="1.84516">
        <ele>364</ele>
        <time>2009-08-30T06:23:32Z</time>
      </trkpt>
      <trkpt lat="44.05933" lon="1.84508">
        <ele>363</ele>
        <time>2009-08-30T06:23:46Z</time>
      </trkpt>
      <trkpt lat="44.0593" lon="1.84507">
        <ele>363</ele>
        <time>2009-08-30T06:23:47Z</time>
      </trkpt>
      <trkpt lat="44.05925" lon="1.84504">
        <ele>362</ele>
        <time>2009-08-30T06:23:51Z</time>
      </trkpt>
      <trkpt lat="44.05914" lon="1.84463">
        <ele>359</ele>
        <time>2009-08-30T06:24:00Z</time>
      </trkpt>
      <trkpt lat="44.0592" lon="1.84447">
        <ele>360</ele>
        <time>2009-08-30T06:24:06Z</time>
      </trkpt>
      <trkpt lat="44.05925" lon="1.84406">
        <ele>360</ele>
        <time>2009-08-30T06:24:18Z</time>
      </trkpt>
      <trkpt lat="44.05925" lon="1.84386">
        <ele>358</ele>
        <time>2009-08-30T06:24:24Z</time>
      </trkpt>
      <trkpt lat="44.05922" lon="1.84336">
        <ele>359</ele>
        <time>2009-08-30T06:24:36Z</time>
      </trkpt>
      <trkpt lat="44.05932" lon="1.84291">
        <ele>363</ele>
        <time>2009-08-30T06:24:49Z</time>
      </trkpt>
      <trkpt lat="44.0593" lon="1.84262">
        <ele>364</ele>
        <time>2009-08-30T06:24:59Z</time>
      </trkpt>
      <trkpt lat="44.05926" lon="1.84225">
        <ele>365</ele>
        <time>2009-08-30T06:25:11Z</time>
      </trkpt>
      <trkpt lat="44.05924" lon="1.84179">
        <ele>367</ele>
        <time>2009-08-30T06:25:24Z</time>
      </trkpt>
      <trkpt lat="44.05923" lon="1.84138">
        <ele>366</ele>
        <time>2009-08-30T06:25:36Z</time>
      </trkpt>
      <trkpt lat="44.0591" lon="1.8409">
        <ele>364</ele>
        <time>2009-08-30T06:25:47Z</time>
      </trkpt>
      <trkpt lat="44.05896" lon="1.84037">
        <ele>364</ele>
        <time>2009-08-30T06:25:58Z</time>
      </trkpt>
      <trkpt lat="44.05892" lon="1.84024">
        <ele>364</ele>
        <time>2009-08-30T06:26:01Z</time>
      </trkpt>
      <trkpt lat="44.05881" lon="1.83977">
        <ele>367</ele>
        <time>2009-08-30T06:26:13Z</time>
      </trkpt>
      <trkpt lat="44.05875" lon="1.83934">
        <ele>369</ele>
        <time>2009-08-30T06:26:27Z</time>
      </trkpt>
      <trkpt lat="44.05874" lon="1.83929">
        <ele>370</ele>
        <time>2009-08-30T06:26:29Z</time>
      </trkpt>
      <trkpt lat="44.05872" lon="1.83907">
        <ele>372</ele>
        <time>2009-08-30T06:26:37Z</time>
      </trkpt>
      <trkpt lat="44.0586" lon="1.8387">
        <ele>376</ele>
        <time>2009-08-30T06:26:51Z</time>
      </trkpt>
      <trkpt lat="44.05852" lon="1.83844">
        <ele>378</ele>
        <time>2009-08-30T06:27:03Z</time>
      </trkpt>
      <trkpt lat="44.05866" lon="1.83837">
        <ele>376</ele>
        <time>2009-08-30T06:27:14Z</time>
      </trkpt>
      <trkpt lat="44.05866" lon="1.83835">
        <ele>377</ele>
        <time>2009-08-30T06:29:09Z</time>
      </trkpt>
      <trkpt lat="44.05898" lon="1.8382">
        <ele>377</ele>
        <time>2009-08-30T06:29:21Z</time>
      </trkpt>
      <trkpt lat="44.0596" lon="1.83803">
        <ele>376</ele>
        <time>2009-08-30T06:29:33Z</time>
      </trkpt>
      <trkpt lat="44.06021" lon="1.83772">
        <ele>378</ele>
        <time>2009-08-30T06:29:48Z</time>
      </trkpt>
      <trkpt lat="44.06072" lon="1.83745">
        <ele>382</ele>
        <time>2009-08-30T06:30:01Z</time>
      </trkpt>
      <trkpt lat="44.06119" lon="1.83713">
        <ele>384</ele>
        <time>2009-08-30T06:30:15Z</time>
      </trkpt>
      <trkpt lat="44.06166" lon="1.8367">
        <ele>386</ele>
        <time>2009-08-30T06:30:31Z</time>
      </trkpt>
      <trkpt lat="44.06204" lon="1.83641">
        <ele>384</ele>
        <time>2009-08-30T06:30:44Z</time>
      </trkpt>
      <trkpt lat="44.06215" lon="1.83635">
        <ele>388</ele>
        <time>2009-08-30T06:30:53Z</time>
      </trkpt>
      <trkpt lat="44.06215" lon="1.83635">
        <ele>390</ele>
        <time>2009-08-30T06:30:57Z</time>
      </trkpt>
      <trkpt lat="44.06247" lon="1.83573">
        <ele>391</ele>
        <time>2009-08-30T06:31:10Z</time>
      </trkpt>
      <trkpt lat="44.0624" lon="1.83565">
        <ele>393</ele>
        <time>2009-08-30T06:31:15Z</time>
      </trkpt>
      <trkpt lat="44.06235" lon="1.83559">
        <ele>394</ele>
        <time>2009-08-30T06:31:22Z</time>
      </trkpt>
      <trkpt lat="44.06241" lon="1.83566">
        <ele>395</ele>
        <time>2009-08-30T06:31:32Z</time>
      </trkpt>
      <trkpt lat="44.06254" lon="1.83585">
        <ele>400</ele>
        <time>2009-08-30T06:31:46Z</time>
      </trkpt>
      <trkpt lat="44.06275" lon="1.83595">
        <ele>405</ele>
        <time>2009-08-30T06:32:02Z</time>
      </trkpt>
      <trkpt lat="44.06299" lon="1.83599">
        <ele>411</ele>
        <time>2009-08-30T06:32:19Z</time>
      </trkpt>
      <trkpt lat="44.06326" lon="1.83588">
        <ele>409</ele>
        <time>2009-08-30T06:32:33Z</time>
      </trkpt>
      <trkpt lat="44.06345" lon="1.83564">
        <ele>412</ele>
        <time>2009-08-30T06:32:48Z</time>
      </trkpt>
      <trkpt lat="44.0635" lon="1.83529">
        <ele>413</ele>
        <time>2009-08-30T06:33:03Z</time>
      </trkpt>
      <trkpt lat="44.06363" lon="1.83491">
        <ele>414</ele>
        <time>2009-08-30T06:33:19Z</time>
      </trkpt>
      <trkpt lat="44.06379" lon="1.83468">
        <ele>413</ele>
        <time>2009-08-30T06:33:31Z</time>
      </trkpt>
      <trkpt lat="44.06401" lon="1.83457">
        <ele>413</ele>
        <time>2009-08-30T06:33:43Z</time>
      </trkpt>
      <trkpt lat="44.06431" lon="1.83454">
        <ele>415</ele>
        <time>2009-08-30T06:33:54Z</time>
      </trkpt>
      <trkpt lat="44.06461" lon="1.83449">
        <ele>419</ele>
        <time>2009-08-30T06:34:06Z</time>
      </trkpt>
      <trkpt lat="44.065" lon="1.83443">
        <ele>424</ele>
        <time>2009-08-30T06:34:20Z</time>
      </trkpt>
      <trkpt lat="44.06506" lon="1.8344">
        <ele>425</ele>
        <time>2009-08-30T06:34:22Z</time>
      </trkpt>
      <trkpt lat="44.06523" lon="1.83431">
        <ele>426</ele>
        <time>2009-08-30T06:34:33Z</time>
      </trkpt>
      <trkpt lat="44.06549" lon="1.83425">
        <ele>426</ele>
        <time>2009-08-30T06:34:47Z</time>
      </trkpt>
      <trkpt lat="44.06575" lon="1.83416">
        <ele>426</ele>
        <time>2009-08-30T06:34:59Z</time>
      </trkpt>
      <trkpt lat="44.06609" lon="1.83407">
        <ele>427</ele>
        <time>2009-08-30T06:35:14Z</time>
      </trkpt>
      <trkpt lat="44.06635" lon="1.83396">
        <ele>428</ele>
        <time>2009-08-30T06:35:27Z</time>
      </trkpt>
      <trkpt lat="44.06671" lon="1.83385">
        <ele>430</ele>
        <time>2009-08-30T06:35:45Z</time>
      </trkpt>
      <trkpt lat="44.06694" lon="1.83399">
        <ele>433</ele>
        <time>2009-08-30T06:35:58Z</time>
      </trkpt>
      <trkpt lat="44.06726" lon="1.83406">
        <ele>435</ele>
        <time>2009-08-30T06:36:12Z</time>
      </trkpt>
      <trkpt lat="44.06753" lon="1.83405">
        <ele>436</ele>
        <time>2009-08-30T06:36:26Z</time>
      </trkpt>
      <trkpt lat="44.06783" lon="1.83401">
        <ele>437</ele>
        <time>2009-08-30T06:36:41Z</time>
      </trkpt>
      <trkpt lat="44.06813" lon="1.83393">
        <ele>439</ele>
        <time>2009-08-30T06:36:56Z</time>
      </trkpt>
      <trkpt lat="44.06845" lon="1.83383">
        <ele>442</ele>
        <time>2009-08-30T06:37:13Z</time>
      </trkpt>
      <trkpt lat="44.06881" lon="1.83377">
        <ele>445</ele>
        <time>2009-08-30T06:37:32Z</time>
      </trkpt>
      <trkpt lat="44.06909" lon="1.83372">
        <ele>447</ele>
        <time>2009-08-30T06:37:47Z</time>
      </trkpt>
      <trkpt lat="44.06927" lon="1.83365">
        <ele>450</ele>
        <time>2009-08-30T06:37:59Z</time>
      </trkpt>
      <trkpt lat="44.06953" lon="1.83361">
        <ele>446</ele>
        <time>2009-08-30T06:38:11Z</time>
      </trkpt>
      <trkpt lat="44.06972" lon="1.83354">
        <ele>445</ele>
        <time>2009-08-30T06:38:19Z</time>
      </trkpt>
      <trkpt lat="44.06977" lon="1.83345">
        <ele>442</ele>
        <time>2009-08-30T06:38:22Z</time>
      </trkpt>
      <trkpt lat="44.06966" lon="1.83315">
        <ele>440</ele>
        <time>2009-08-30T06:38:33Z</time>
      </trkpt>
      <trkpt lat="44.06934" lon="1.83285">
        <ele>438</ele>
        <time>2009-08-30T06:38:44Z</time>
      </trkpt>
      <trkpt lat="44.06898" lon="1.83258">
        <ele>436</ele>
        <time>2009-08-30T06:38:52Z</time>
      </trkpt>
      <trkpt lat="44.0686" lon="1.83249">
        <ele>433</ele>
        <time>2009-08-30T06:38:58Z</time>
      </trkpt>
      <trkpt lat="44.06839" lon="1.83244">
        <ele>429</ele>
        <time>2009-08-30T06:39:02Z</time>
      </trkpt>
      <trkpt lat="44.06827" lon="1.83227">
        <ele>429</ele>
        <time>2009-08-30T06:39:09Z</time>
      </trkpt>
      <trkpt lat="44.06863" lon="1.83222">
        <ele>424</ele>
        <time>2009-08-30T06:39:21Z</time>
      </trkpt>
      <trkpt lat="44.069" lon="1.83199">
        <ele>417</ele>
        <time>2009-08-30T06:39:31Z</time>
      </trkpt>
      <trkpt lat="44.06933" lon="1.83173">
        <ele>412</ele>
        <time>2009-08-30T06:39:39Z</time>
      </trkpt>
      <trkpt lat="44.06986" lon="1.83161">
        <ele>407</ele>
        <time>2009-08-30T06:39:48Z</time>
      </trkpt>
      <trkpt lat="44.07018" lon="1.83182">
        <ele>401</ele>
        <time>2009-08-30T06:39:56Z</time>
      </trkpt>
      <trkpt lat="44.07019" lon="1.83176">
        <ele>401</ele>
        <time>2009-08-30T06:40:00Z</time>
      </trkpt>
      <trkpt lat="44.07009" lon="1.83157">
        <ele>399</ele>
        <time>2009-08-30T06:40:05Z</time>
      </trkpt>
      <trkpt lat="44.07" lon="1.83136">
        <ele>399</ele>
        <time>2009-08-30T06:40:08Z</time>
      </trkpt>
      <trkpt lat="44.06983" lon="1.83125">
        <ele>397</ele>
        <time>2009-08-30T06:40:12Z</time>
      </trkpt>
      <trkpt lat="44.0697" lon="1.83114">
        <ele>397</ele>
        <time>2009-08-30T06:40:15Z</time>
      </trkpt>
      <trkpt lat="44.06918" lon="1.83104">
        <ele>394</ele>
        <time>2009-08-30T06:40:23Z</time>
      </trkpt>
      <trkpt lat="44.06906" lon="1.83104">
        <ele>393</ele>
        <time>2009-08-30T06:40:26Z</time>
      </trkpt>
      <trkpt lat="44.06893" lon="1.831">
        <ele>394</ele>
        <time>2009-08-30T06:40:29Z</time>
      </trkpt>
      <trkpt lat="44.06859" lon="1.83083">
        <ele>397</ele>
        <time>2009-08-30T06:40:36Z</time>
      </trkpt>
      <trkpt lat="44.0683" lon="1.83069">
        <ele>398</ele>
        <time>2009-08-30T06:40:42Z</time>
      </trkpt>
      <trkpt lat="44.06803" lon="1.83049">
        <ele>399</ele>
        <time>2009-08-30T06:40:48Z</time>
      </trkpt>
      <trkpt lat="44.06771" lon="1.83032">
        <ele>398</ele>
        <time>2009-08-30T06:40:53Z</time>
      </trkpt>
      <trkpt lat="44.06737" lon="1.83004">
        <ele>395</ele>
        <time>2009-08-30T06:40:59Z</time>
      </trkpt>
      <trkpt lat="44.06719" lon="1.82987">
        <ele>393</ele>
        <time>2009-08-30T06:41:03Z</time>
      </trkpt>
      <trkpt lat="44.06713" lon="1.82978">
        <ele>393</ele>
        <time>2009-08-30T06:41:05Z</time>
      </trkpt>
      <trkpt lat="44.0668" lon="1.82968">
        <ele>389</ele>
        <time>2009-08-30T06:41:13Z</time>
      </trkpt>
      <trkpt lat="44.06667" lon="1.8297">
        <ele>390</ele>
        <time>2009-08-30T06:41:16Z</time>
      </trkpt>
      <trkpt lat="44.06648" lon="1.82969">
        <ele>389</ele>
        <time>2009-08-30T06:41:20Z</time>
      </trkpt>
      <trkpt lat="44.0664" lon="1.82963">
        <ele>389</ele>
        <time>2009-08-30T06:41:22Z</time>
      </trkpt>
      <trkpt lat="44.06596" lon="1.82923">
        <ele>394</ele>
        <time>2009-08-30T06:41:34Z</time>
      </trkpt>
      <trkpt lat="44.06557" lon="1.82909">
        <ele>401</ele>
        <time>2009-08-30T06:41:45Z</time>
      </trkpt>
      <trkpt lat="44.06524" lon="1.82896">
        <ele>408</ele>
        <time>2009-08-30T06:41:54Z</time>
      </trkpt>
      <trkpt lat="44.06505" lon="1.82894">
        <ele>411</ele>
        <time>2009-08-30T06:42:00Z</time>
      </trkpt>
      <trkpt lat="44.06483" lon="1.82861">
        <ele>411</ele>
        <time>2009-08-30T06:42:02Z</time>
      </trkpt>
      <trkpt lat="44.06477" lon="1.8285">
        <ele>412</ele>
        <time>2009-08-30T06:42:06Z</time>
      </trkpt>
      <trkpt lat="44.06464" lon="1.82811">
        <ele>413</ele>
        <time>2009-08-30T06:42:11Z</time>
      </trkpt>
      <trkpt lat="44.0643" lon="1.82789">
        <ele>401</ele>
        <time>2009-08-30T06:42:18Z</time>
      </trkpt>
      <trkpt lat="44.06423" lon="1.82789">
        <ele>401</ele>
        <time>2009-08-30T06:42:20Z</time>
      </trkpt>
      <trkpt lat="44.06391" lon="1.82796">
        <ele>396</ele>
        <time>2009-08-30T06:42:28Z</time>
      </trkpt>
      <trkpt lat="44.06354" lon="1.82799">
        <ele>392</ele>
        <time>2009-08-30T06:42:33Z</time>
      </trkpt>
      <trkpt lat="44.0634" lon="1.82797">
        <ele>389</ele>
        <time>2009-08-30T06:42:36Z</time>
      </trkpt>
      <trkpt lat="44.06319" lon="1.82795">
        <ele>389</ele>
        <time>2009-08-30T06:42:41Z</time>
      </trkpt>
      <trkpt lat="44.06302" lon="1.82812">
        <ele>388</ele>
        <time>2009-08-30T06:42:45Z</time>
      </trkpt>
      <trkpt lat="44.06256" lon="1.82815">
        <ele>387</ele>
        <time>2009-08-30T06:42:53Z</time>
      </trkpt>
      <trkpt lat="44.06228" lon="1.82795">
        <ele>384</ele>
        <time>2009-08-30T06:42:58Z</time>
      </trkpt>
      <trkpt lat="44.06218" lon="1.82787">
        <ele>382</ele>
        <time>2009-08-30T06:43:00Z</time>
      </trkpt>
      <trkpt lat="44.06182" lon="1.82785">
        <ele>379</ele>
        <time>2009-08-30T06:43:06Z</time>
      </trkpt>
      <trkpt lat="44.06154" lon="1.82775">
        <ele>380</ele>
        <time>2009-08-30T06:43:11Z</time>
      </trkpt>
      <trkpt lat="44.0611" lon="1.82738">
        <ele>381</ele>
        <time>2009-08-30T06:43:20Z</time>
      </trkpt>
      <trkpt lat="44.0607" lon="1.82693">
        <ele>380</ele>
        <time>2009-08-30T06:43:29Z</time>
      </trkpt>
      <trkpt lat="44.06029" lon="1.82693">
        <ele>378</ele>
        <time>2009-08-30T06:43:36Z</time>
      </trkpt>
      <trkpt lat="44.06008" lon="1.82691">
        <ele>377</ele>
        <time>2009-08-30T06:43:41Z</time>
      </trkpt>
      <trkpt lat="44.05992" lon="1.82689">
        <ele>377</ele>
        <time>2009-08-30T06:43:44Z</time>
      </trkpt>
      <trkpt lat="44.05975" lon="1.82687">
        <ele>376</ele>
        <time>2009-08-30T06:43:46Z</time>
      </trkpt>
      <trkpt lat="44.05955" lon="1.82685">
        <ele>375</ele>
        <time>2009-08-30T06:43:49Z</time>
      </trkpt>
      <trkpt lat="44.05938" lon="1.82683">
        <ele>374</ele>
        <time>2009-08-30T06:43:53Z</time>
      </trkpt>
      <trkpt lat="44.05922" lon="1.82681">
        <ele>373</ele>
        <time>2009-08-30T06:43:58Z</time>
      </trkpt>
      <trkpt lat="44.05875" lon="1.82661">
        <ele>369</ele>
        <time>2009-08-30T06:44:10Z</time>
      </trkpt>
      <trkpt lat="44.05845" lon="1.82636">
        <ele>365</ele>
        <time>2009-08-30T06:44:12Z</time>
      </trkpt>
      <trkpt lat="44.05877" lon="1.82634">
        <ele>362</ele>
        <time>2009-08-30T06:44:19Z</time>
      </trkpt>
      <trkpt lat="44.05921" lon="1.82601">
        <ele>357</ele>
        <time>2009-08-30T06:44:32Z</time>
      </trkpt>
      <trkpt lat="44.0595" lon="1.82579">
        <ele>355</ele>
        <time>2009-08-30T06:44:39Z</time>
      </trkpt>
      <trkpt lat="44.05963" lon="1.82568">
        <ele>353</ele>
        <time>2009-08-30T06:44:42Z</time>
      </trkpt>
      <trkpt lat="44.05995" lon="1.8256">
        <ele>353</ele>
        <time>2009-08-30T06:44:47Z</time>
      </trkpt>
      <trkpt lat="44.06016" lon="1.82553">
        <ele>352</ele>
        <time>2009-08-30T06:44:50Z</time>
      </trkpt>
      <trkpt lat="44.06043" lon="1.82549">
        <ele>350</ele>
        <time>2009-08-30T06:44:54Z</time>
      </trkpt>
      <trkpt lat="44.06056" lon="1.82558">
        <ele>348</ele>
        <time>2009-08-30T06:44:56Z</time>
      </trkpt>
      <trkpt lat="44.06088" lon="1.82587">
        <ele>346</ele>
        <time>2009-08-30T06:45:01Z</time>
      </trkpt>
      <trkpt lat="44.06117" lon="1.82606">
        <ele>343</ele>
        <time>2009-08-30T06:45:05Z</time>
      </trkpt>
      <trkpt lat="44.06173" lon="1.82624">
        <ele>341</ele>
        <time>2009-08-30T06:45:13Z</time>
      </trkpt>
      <trkpt lat="44.06226" lon="1.82645">
        <ele>337</ele>
        <time>2009-08-30T06:45:20Z</time>
      </trkpt>
      <trkpt lat="44.06267" lon="1.8267">
        <ele>332</ele>
        <time>2009-08-30T06:45:26Z</time>
      </trkpt>
      <trkpt lat="44.06294" lon="1.82637">
        <ele>333</ele>
        <time>2009-08-30T06:45:30Z</time>
      </trkpt>
      <trkpt lat="44.06323" lon="1.82604">
        <ele>332</ele>
        <time>2009-08-30T06:45:35Z</time>
      </trkpt>
      <trkpt lat="44.06339" lon="1.82593">
        <ele>332</ele>
        <time>2009-08-30T06:45:38Z</time>
      </trkpt>
      <trkpt lat="44.06373" lon="1.8257">
        <ele>331</ele>
        <time>2009-08-30T06:45:43Z</time>
      </trkpt>
      <trkpt lat="44.06394" lon="1.82555">
        <ele>330</ele>
        <time>2009-08-30T06:45:46Z</time>
      </trkpt>
      <trkpt lat="44.06477" lon="1.82504">
        <ele>326</ele>
        <time>2009-08-30T06:45:56Z</time>
      </trkpt>
      <trkpt lat="44.06522" lon="1.82498">
        <ele>322</ele>
        <time>2009-08-30T06:46:01Z</time>
      </trkpt>
      <trkpt lat="44.06556" lon="1.82513">
        <ele>320</ele>
        <time>2009-08-30T06:46:05Z</time>
      </trkpt>
      <trkpt lat="44.06593" lon="1.82543">
        <ele>319</ele>
        <time>2009-08-30T06:46:11Z</time>
      </trkpt>
      <trkpt lat="44.06597" lon="1.82555">
        <ele>320</ele>
        <time>2009-08-30T06:46:13Z</time>
      </trkpt>
      <trkpt lat="44.06603" lon="1.82572">
        <ele>322</ele>
        <time>2009-08-30T06:46:17Z</time>
      </trkpt>
      <trkpt lat="44.06645" lon="1.82621">
        <ele>314</ele>
        <time>2009-08-30T06:46:29Z</time>
      </trkpt>
      <trkpt lat="44.06709" lon="1.82639">
        <ele>316</ele>
        <time>2009-08-30T06:46:34Z</time>
      </trkpt>
      <trkpt lat="44.06743" lon="1.82559">
        <ele>312</ele>
        <time>2009-08-30T06:46:45Z</time>
      </trkpt>
      <trkpt lat="44.06762" lon="1.82521">
        <ele>310</ele>
        <time>2009-08-30T06:46:58Z</time>
      </trkpt>
      <trkpt lat="44.06757" lon="1.82514">
        <ele>309</ele>
        <time>2009-08-30T06:47:02Z</time>
      </trkpt>
      <trkpt lat="44.06757" lon="1.82511">
        <ele>309</ele>
        <time>2009-08-30T06:47:14Z</time>
      </trkpt>
      <trkpt lat="44.06764" lon="1.82486">
        <ele>309</ele>
        <time>2009-08-30T06:47:27Z</time>
      </trkpt>
      <trkpt lat="44.06795" lon="1.82377">
        <ele>307</ele>
        <time>2009-08-30T06:47:41Z</time>
      </trkpt>
      <trkpt lat="44.06802" lon="1.82352">
        <ele>306</ele>
        <time>2009-08-30T06:47:44Z</time>
      </trkpt>
      <trkpt lat="44.06808" lon="1.82331">
        <ele>306</ele>
        <time>2009-08-30T06:47:47Z</time>
      </trkpt>
      <trkpt lat="44.0683" lon="1.82254">
        <ele>312</ele>
        <time>2009-08-30T06:48:04Z</time>
      </trkpt>
      <trkpt lat="44.06845" lon="1.82202">
        <ele>317</ele>
        <time>2009-08-30T06:48:18Z</time>
      </trkpt>
      <trkpt lat="44.06859" lon="1.82157">
        <ele>319</ele>
        <time>2009-08-30T06:48:33Z</time>
      </trkpt>
      <trkpt lat="44.06874" lon="1.82112">
        <ele>323</ele>
        <time>2009-08-30T06:48:48Z</time>
      </trkpt>
      <trkpt lat="44.06888" lon="1.82058">
        <ele>327</ele>
        <time>2009-08-30T06:49:05Z</time>
      </trkpt>
      <trkpt lat="44.06889" lon="1.82015">
        <ele>329</ele>
        <time>2009-08-30T06:49:20Z</time>
      </trkpt>
      <trkpt lat="44.06876" lon="1.81974">
        <ele>331</ele>
        <time>2009-08-30T06:49:35Z</time>
      </trkpt>
      <trkpt lat="44.06856" lon="1.81929">
        <ele>334</ele>
        <time>2009-08-30T06:49:52Z</time>
      </trkpt>
      <trkpt lat="44.06841" lon="1.81877">
        <ele>335</ele>
        <time>2009-08-30T06:50:07Z</time>
      </trkpt>
      <trkpt lat="44.06835" lon="1.8183">
        <ele>333</ele>
        <time>2009-08-30T06:50:14Z</time>
      </trkpt>
      <trkpt lat="44.0683" lon="1.81807">
        <ele>332</ele>
        <time>2009-08-30T06:50:17Z</time>
      </trkpt>
      <trkpt lat="44.06798" lon="1.8174">
        <ele>326</ele>
        <time>2009-08-30T06:50:26Z</time>
      </trkpt>
      <trkpt lat="44.06771" lon="1.81605">
        <ele>319</ele>
        <time>2009-08-30T06:50:38Z</time>
      </trkpt>
      <trkpt lat="44.06763" lon="1.81529">
        <ele>318</ele>
        <time>2009-08-30T06:50:45Z</time>
      </trkpt>
      <trkpt lat="44.06758" lon="1.81487">
        <ele>320</ele>
        <time>2009-08-30T06:50:54Z</time>
      </trkpt>
      <trkpt lat="44.0676" lon="1.81455">
        <ele>322</ele>
        <time>2009-08-30T06:51:05Z</time>
      </trkpt>
      <trkpt lat="44.06764" lon="1.81437">
        <ele>323</ele>
        <time>2009-08-30T06:51:11Z</time>
      </trkpt>
      <trkpt lat="44.06771" lon="1.81409">
        <ele>329</ele>
        <time>2009-08-30T06:51:22Z</time>
      </trkpt>
      <trkpt lat="44.06782" lon="1.81366">
        <ele>336</ele>
        <time>2009-08-30T06:51:38Z</time>
      </trkpt>
      <trkpt lat="44.06793" lon="1.81323">
        <ele>339</ele>
        <time>2009-08-30T06:51:54Z</time>
      </trkpt>
      <trkpt lat="44.06801" lon="1.81273">
        <ele>342</ele>
        <time>2009-08-30T06:52:11Z</time>
      </trkpt>
      <trkpt lat="44.06806" lon="1.8123">
        <ele>344</ele>
        <time>2009-08-30T06:52:25Z</time>
      </trkpt>
      <trkpt lat="44.06815" lon="1.8118">
        <ele>348</ele>
        <time>2009-08-30T06:52:40Z</time>
      </trkpt>
      <trkpt lat="44.06834" lon="1.81135">
        <ele>349</ele>
        <time>2009-08-30T06:52:57Z</time>
      </trkpt>
      <trkpt lat="44.06851" lon="1.81103">
        <ele>352</ele>
        <time>2009-08-30T06:53:11Z</time>
      </trkpt>
      <trkpt lat="44.06865" lon="1.81074">
        <ele>354</ele>
        <time>2009-08-30T06:53:24Z</time>
      </trkpt>
      <trkpt lat="44.06879" lon="1.81038">
        <ele>360</ele>
        <time>2009-08-30T06:53:39Z</time>
      </trkpt>
      <trkpt lat="44.06882" lon="1.81002">
        <ele>366</ele>
        <time>2009-08-30T06:53:53Z</time>
      </trkpt>
      <trkpt lat="44.06897" lon="1.80964">
        <ele>369</ele>
        <time>2009-08-30T06:54:07Z</time>
      </trkpt>
      <trkpt lat="44.06915" lon="1.80925">
        <ele>375</ele>
        <time>2009-08-30T06:54:23Z</time>
      </trkpt>
      <trkpt lat="44.06936" lon="1.80905">
        <ele>376</ele>
        <time>2009-08-30T06:54:37Z</time>
      </trkpt>
      <trkpt lat="44.06941" lon="1.80869">
        <ele>380</ele>
        <time>2009-08-30T06:54:51Z</time>
      </trkpt>
      <trkpt lat="44.06927" lon="1.80852">
        <ele>384</ele>
        <time>2009-08-30T06:55:05Z</time>
      </trkpt>
      <trkpt lat="44.06916" lon="1.80828">
        <ele>385</ele>
        <time>2009-08-30T06:55:19Z</time>
      </trkpt>
      <trkpt lat="44.06932" lon="1.80795">
        <ele>389</ele>
        <time>2009-08-30T06:55:37Z</time>
      </trkpt>
      <trkpt lat="44.06946" lon="1.80769">
        <ele>392</ele>
        <time>2009-08-30T06:55:52Z</time>
      </trkpt>
      <trkpt lat="44.06944" lon="1.80752">
        <ele>393</ele>
        <time>2009-08-30T06:55:59Z</time>
      </trkpt>
      <trkpt lat="44.0692" lon="1.80746">
        <ele>396</ele>
        <time>2009-08-30T06:56:14Z</time>
      </trkpt>
      <trkpt lat="44.06898" lon="1.8074">
        <ele>399</ele>
        <time>2009-08-30T06:56:29Z</time>
      </trkpt>
      <trkpt lat="44.06876" lon="1.80734">
        <ele>403</ele>
        <time>2009-08-30T06:56:45Z</time>
      </trkpt>
      <trkpt lat="44.06869" lon="1.80723">
        <ele>404</ele>
        <time>2009-08-30T06:56:50Z</time>
      </trkpt>
      <trkpt lat="44.06871" lon="1.80717">
        <ele>405</ele>
        <time>2009-08-30T06:56:54Z</time>
      </trkpt>
      <trkpt lat="44.06882" lon="1.80685">
        <ele>412</ele>
        <time>2009-08-30T06:57:10Z</time>
      </trkpt>
      <trkpt lat="44.06897" lon="1.80657">
        <ele>413</ele>
        <time>2009-08-30T06:57:23Z</time>
      </trkpt>
      <trkpt lat="44.06909" lon="1.80636">
        <ele>416</ele>
        <time>2009-08-30T06:57:34Z</time>
      </trkpt>
      <trkpt lat="44.06918" lon="1.80619">
        <ele>416</ele>
        <time>2009-08-30T06:57:44Z</time>
      </trkpt>
      <trkpt lat="44.0693" lon="1.80596">
        <ele>417</ele>
        <time>2009-08-30T06:57:55Z</time>
      </trkpt>
      <trkpt lat="44.0695" lon="1.80561">
        <ele>423</ele>
        <time>2009-08-30T06:58:11Z</time>
      </trkpt>
      <trkpt lat="44.06968" lon="1.80538">
        <ele>426</ele>
        <time>2009-08-30T06:58:25Z</time>
      </trkpt>
      <trkpt lat="44.06985" lon="1.80515">
        <ele>427</ele>
        <time>2009-08-30T06:58:39Z</time>
      </trkpt>
      <trkpt lat="44.07007" lon="1.80493">
        <ele>430</ele>
        <time>2009-08-30T06:58:53Z</time>
      </trkpt>
      <trkpt lat="44.07026" lon="1.80472">
        <ele>433</ele>
        <time>2009-08-30T06:59:07Z</time>
      </trkpt>
      <trkpt lat="44.07038" lon="1.80458">
        <ele>435</ele>
        <time>2009-08-30T06:59:16Z</time>
      </trkpt>
      <trkpt lat="44.07055" lon="1.80435">
        <ele>434</ele>
        <time>2009-08-30T06:59:31Z</time>
      </trkpt>
      <trkpt lat="44.07056" lon="1.80424">
        <ele>435</ele>
        <time>2009-08-30T06:59:34Z</time>
      </trkpt>
      <trkpt lat="44.07028" lon="1.80411">
        <ele>435</ele>
        <time>2009-08-30T06:59:49Z</time>
      </trkpt>
      <trkpt lat="44.06997" lon="1.80389">
        <ele>435</ele>
        <time>2009-08-30T07:00:04Z</time>
      </trkpt>
      <trkpt lat="44.06982" lon="1.80359">
        <ele>436</ele>
        <time>2009-08-30T07:00:17Z</time>
      </trkpt>
      <trkpt lat="44.06977" lon="1.80318">
        <ele>438</ele>
        <time>2009-08-30T07:00:30Z</time>
      </trkpt>
      <trkpt lat="44.06983" lon="1.80274">
        <ele>439</ele>
        <time>2009-08-30T07:00:43Z</time>
      </trkpt>
      <trkpt lat="44.06987" lon="1.80232">
        <ele>442</ele>
        <time>2009-08-30T07:00:57Z</time>
      </trkpt>
      <trkpt lat="44.06987" lon="1.8022">
        <ele>443</ele>
        <time>2009-08-30T07:01:01Z</time>
      </trkpt>
      <trkpt lat="44.06982" lon="1.80202">
        <ele>444</ele>
        <time>2009-08-30T07:01:08Z</time>
      </trkpt>
      <trkpt lat="44.0694" lon="1.80212">
        <ele>450</ele>
        <time>2009-08-30T07:01:26Z</time>
      </trkpt>
      <trkpt lat="44.0694" lon="1.80212">
        <ele>449</ele>
        <time>2009-08-30T07:01:39Z</time>
      </trkpt>
      <trkpt lat="44.0694" lon="1.80212">
        <ele>449</ele>
        <time>2009-08-30T07:01:59Z</time>
      </trkpt>
      <trkpt lat="44.0694" lon="1.80212">
        <ele>450</ele>
        <time>2009-08-30T07:08:16Z</time>
      </trkpt>
      <trkpt lat="44.0694" lon="1.80212">
        <ele>450</ele>
        <time>2009-08-30T07:08:26Z</time>
      </trkpt>
      <trkpt lat="44.06919" lon="1.80245">
        <ele>447</ele>
        <time>2009-08-30T07:08:33Z</time>
      </trkpt>
      <trkpt lat="44.06864" lon="1.8024">
        <ele>441</ele>
        <time>2009-08-30T07:08:42Z</time>
      </trkpt>
      <trkpt lat="44.06836" lon="1.80205">
        <ele>437</ele>
        <time>2009-08-30T07:08:52Z</time>
      </trkpt>
      <trkpt lat="44.06824" lon="1.80195">
        <ele>436</ele>
        <time>2009-08-30T07:08:55Z</time>
      </trkpt>
      <trkpt lat="44.06777" lon="1.80184">
        <ele>439</ele>
        <time>2009-08-30T07:09:07Z</time>
      </trkpt>
      <trkpt lat="44.06739" lon="1.80182">
        <ele>440</ele>
        <time>2009-08-30T07:09:18Z</time>
      </trkpt>
      <trkpt lat="44.06701" lon="1.80187">
        <ele>438</ele>
        <time>2009-08-30T07:09:27Z</time>
      </trkpt>
      <trkpt lat="44.06665" lon="1.80137">
        <ele>435</ele>
        <time>2009-08-30T07:09:31Z</time>
      </trkpt>
      <trkpt lat="44.06646" lon="1.80148">
        <ele>435</ele>
        <time>2009-08-30T07:09:35Z</time>
      </trkpt>
      <trkpt lat="44.06615" lon="1.80165">
        <ele>432</ele>
        <time>2009-08-30T07:09:43Z</time>
      </trkpt>
      <trkpt lat="44.06591" lon="1.80177">
        <ele>429</ele>
        <time>2009-08-30T07:09:49Z</time>
      </trkpt>
      <trkpt lat="44.06583" lon="1.80181">
        <ele>429</ele>
        <time>2009-08-30T07:09:51Z</time>
      </trkpt>
      <trkpt lat="44.06552" lon="1.80191">
        <ele>428</ele>
        <time>2009-08-30T07:09:58Z</time>
      </trkpt>
      <trkpt lat="44.06519" lon="1.80209">
        <ele>424</ele>
        <time>2009-08-30T07:10:10Z</time>
      </trkpt>
      <trkpt lat="44.0648" lon="1.80219">
        <ele>429</ele>
        <time>2009-08-30T07:10:23Z</time>
      </trkpt>
      <trkpt lat="44.06442" lon="1.80231">
        <ele>428</ele>
        <time>2009-08-30T07:10:38Z</time>
      </trkpt>
      <trkpt lat="44.06399" lon="1.80247">
        <ele>430</ele>
        <time>2009-08-30T07:10:53Z</time>
      </trkpt>
      <trkpt lat="44.06357" lon="1.80268">
        <ele>429</ele>
        <time>2009-08-30T07:11:08Z</time>
      </trkpt>
      <trkpt lat="44.06311" lon="1.80286">
        <ele>433</ele>
        <time>2009-08-30T07:11:24Z</time>
      </trkpt>
      <trkpt lat="44.06282" lon="1.80306">
        <ele>430</ele>
        <time>2009-08-30T07:11:32Z</time>
      </trkpt>
      <trkpt lat="44.06244" lon="1.80344">
        <ele>429</ele>
        <time>2009-08-30T07:11:44Z</time>
      </trkpt>
      <trkpt lat="44.06219" lon="1.80363">
        <ele>433</ele>
        <time>2009-08-30T07:11:56Z</time>
      </trkpt>
      <trkpt lat="44.06219" lon="1.80363">
        <ele>435</ele>
        <time>2009-08-30T07:12:09Z</time>
      </trkpt>
      <trkpt lat="44.06147" lon="1.80413">
        <ele>438</ele>
        <time>2009-08-30T07:12:22Z</time>
      </trkpt>
      <trkpt lat="44.06111" lon="1.80435">
        <ele>440</ele>
        <time>2009-08-30T07:12:37Z</time>
      </trkpt>
      <trkpt lat="44.06092" lon="1.80459">
        <ele>441</ele>
        <time>2009-08-30T07:12:49Z</time>
      </trkpt>
      <trkpt lat="44.06067" lon="1.80485">
        <ele>444</ele>
        <time>2009-08-30T07:13:02Z</time>
      </trkpt>
      <trkpt lat="44.06043" lon="1.80512">
        <ele>446</ele>
        <time>2009-08-30T07:13:16Z</time>
      </trkpt>
      <trkpt lat="44.06019" lon="1.80541">
        <ele>447</ele>
        <time>2009-08-30T07:13:29Z</time>
      </trkpt>
      <trkpt lat="44.05987" lon="1.8057">
        <ele>447</ele>
        <time>2009-08-30T07:13:44Z</time>
      </trkpt>
      <trkpt lat="44.05946" lon="1.80593">
        <ele>448</ele>
        <time>2009-08-30T07:14:02Z</time>
      </trkpt>
      <trkpt lat="44.05912" lon="1.80612">
        <ele>445</ele>
        <time>2009-08-30T07:14:14Z</time>
      </trkpt>
      <trkpt lat="44.05891" lon="1.8063">
        <ele>447</ele>
        <time>2009-08-30T07:14:24Z</time>
      </trkpt>
      <trkpt lat="44.05862" lon="1.80668">
        <ele>446</ele>
        <time>2009-08-30T07:14:36Z</time>
      </trkpt>
      <trkpt lat="44.05856" lon="1.80674">
        <ele>446</ele>
        <time>2009-08-30T07:14:38Z</time>
      </trkpt>
      <trkpt lat="44.0585" lon="1.80695">
        <ele>446</ele>
        <time>2009-08-30T07:14:42Z</time>
      </trkpt>
      <trkpt lat="44.05862" lon="1.8073">
        <ele>444</ele>
        <time>2009-08-30T07:14:48Z</time>
      </trkpt>
      <trkpt lat="44.0587" lon="1.80733">
        <ele>444</ele>
        <time>2009-08-30T07:14:52Z</time>
      </trkpt>
      <trkpt lat="44.05896" lon="1.80713">
        <ele>448</ele>
        <time>2009-08-30T07:15:07Z</time>
      </trkpt>
      <trkpt lat="44.05922" lon="1.80695">
        <ele>450</ele>
        <time>2009-08-30T07:15:21Z</time>
      </trkpt>
      <trkpt lat="44.05947" lon="1.80686">
        <ele>451</ele>
        <time>2009-08-30T07:15:34Z</time>
      </trkpt>
      <trkpt lat="44.05987" lon="1.80671">
        <ele>452</ele>
        <time>2009-08-30T07:15:53Z</time>
      </trkpt>
      <trkpt lat="44.0602" lon="1.80653">
        <ele>453</ele>
        <time>2009-08-30T07:16:07Z</time>
      </trkpt>
      <trkpt lat="44.06071" lon="1.80632">
        <ele>456</ele>
        <time>2009-08-30T07:16:23Z</time>
      </trkpt>
      <trkpt lat="44.06109" lon="1.80615">
        <ele>456</ele>
        <time>2009-08-30T07:16:35Z</time>
      </trkpt>
      <trkpt lat="44.06142" lon="1.80592">
        <ele>455</ele>
        <time>2009-08-30T07:16:45Z</time>
      </trkpt>
      <trkpt lat="44.0618" lon="1.80589">
        <ele>457</ele>
        <time>2009-08-30T07:16:56Z</time>
      </trkpt>
      <trkpt lat="44.06207" lon="1.8059">
        <ele>457</ele>
        <time>2009-08-30T07:17:02Z</time>
      </trkpt>
      <trkpt lat="44.06217" lon="1.80588">
        <ele>456</ele>
        <time>2009-08-30T07:17:04Z</time>
      </trkpt>
      <trkpt lat="44.06244" lon="1.80591">
        <ele>453</ele>
        <time>2009-08-30T07:17:09Z</time>
      </trkpt>
      <trkpt lat="44.06261" lon="1.80588">
        <ele>453</ele>
        <time>2009-08-30T07:17:12Z</time>
      </trkpt>
      <trkpt lat="44.06323" lon="1.80576">
        <ele>454</ele>
        <time>2009-08-30T07:17:24Z</time>
      </trkpt>
      <trkpt lat="44.06366" lon="1.80571">
        <ele>453</ele>
        <time>2009-08-30T07:17:35Z</time>
      </trkpt>
      <trkpt lat="44.06404" lon="1.80565">
        <ele>461</ele>
        <time>2009-08-30T07:17:46Z</time>
      </trkpt>
      <trkpt lat="44.06445" lon="1.8056">
        <ele>464</ele>
        <time>2009-08-30T07:17:58Z</time>
      </trkpt>
      <trkpt lat="44.065" lon="1.80533">
        <ele>461</ele>
        <time>2009-08-30T07:18:12Z</time>
      </trkpt>
      <trkpt lat="44.06546" lon="1.80527">
        <ele>459</ele>
        <time>2009-08-30T07:18:22Z</time>
      </trkpt>
      <trkpt lat="44.06566" lon="1.80526">
        <ele>459</ele>
        <time>2009-08-30T07:18:27Z</time>
      </trkpt>
      <trkpt lat="44.06612" lon="1.80535">
        <ele>460</ele>
        <time>2009-08-30T07:18:39Z</time>
      </trkpt>
      <trkpt lat="44.06627" lon="1.80536">
        <ele>457</ele>
        <time>2009-08-30T07:18:43Z</time>
      </trkpt>
      <trkpt lat="44.06626" lon="1.80552">
        <ele>458</ele>
        <time>2009-08-30T07:18:52Z</time>
      </trkpt>
      <trkpt lat="44.06624" lon="1.80552">
        <ele>458</ele>
        <time>2009-08-30T07:18:53Z</time>
      </trkpt>
      <trkpt lat="44.06589" lon="1.8058">
        <ele>459</ele>
        <time>2009-08-30T07:19:06Z</time>
      </trkpt>
      <trkpt lat="44.06546" lon="1.80616">
        <ele>463</ele>
        <time>2009-08-30T07:19:19Z</time>
      </trkpt>
      <trkpt lat="44.06507" lon="1.80646">
        <ele>465</ele>
        <time>2009-08-30T07:19:30Z</time>
      </trkpt>
      <trkpt lat="44.06507" lon="1.80651">
        <ele>464</ele>
        <time>2009-08-30T07:19:31Z</time>
      </trkpt>
      <trkpt lat="44.06492" lon="1.80657">
        <ele>464</ele>
        <time>2009-08-30T07:19:33Z</time>
      </trkpt>
      <trkpt lat="44.06436" lon="1.80717">
        <ele>458</ele>
        <time>2009-08-30T07:19:45Z</time>
      </trkpt>
      <trkpt lat="44.06425" lon="1.80723">
        <ele>457</ele>
        <time>2009-08-30T07:19:47Z</time>
      </trkpt>
      <trkpt lat="44.06357" lon="1.80756">
        <ele>454</ele>
        <time>2009-08-30T07:20:00Z</time>
      </trkpt>
      <trkpt lat="44.06352" lon="1.80758">
        <ele>453</ele>
        <time>2009-08-30T07:20:01Z</time>
      </trkpt>
      <trkpt lat="44.06295" lon="1.80803">
        <ele>450</ele>
        <time>2009-08-30T07:20:14Z</time>
      </trkpt>
      <trkpt lat="44.06257" lon="1.80848">
        <ele>451</ele>
        <time>2009-08-30T07:20:26Z</time>
      </trkpt>
      <trkpt lat="44.06231" lon="1.80895">
        <ele>453</ele>
        <time>2009-08-30T07:20:39Z</time>
      </trkpt>
      <trkpt lat="44.06202" lon="1.80928">
        <ele>458</ele>
        <time>2009-08-30T07:20:52Z</time>
      </trkpt>
      <trkpt lat="44.06163" lon="1.80951">
        <ele>458</ele>
        <time>2009-08-30T07:21:05Z</time>
      </trkpt>
      <trkpt lat="44.0613" lon="1.80979">
        <ele>457</ele>
        <time>2009-08-30T07:21:15Z</time>
      </trkpt>
      <trkpt lat="44.06099" lon="1.81004">
        <ele>455</ele>
        <time>2009-08-30T07:21:23Z</time>
      </trkpt>
      <trkpt lat="44.06073" lon="1.81073">
        <ele>453</ele>
        <time>2009-08-30T07:21:36Z</time>
      </trkpt>
      <trkpt lat="44.06064" lon="1.81097">
        <ele>453</ele>
        <time>2009-08-30T07:21:41Z</time>
      </trkpt>
      <trkpt lat="44.06059" lon="1.81108">
        <ele>452</ele>
        <time>2009-08-30T07:21:43Z</time>
      </trkpt>
      <trkpt lat="44.0605" lon="1.8112">
        <ele>451</ele>
        <time>2009-08-30T07:21:46Z</time>
      </trkpt>
      <trkpt lat="44.06005" lon="1.81189">
        <ele>447</ele>
        <time>2009-08-30T07:21:52Z</time>
      </trkpt>
      <trkpt lat="44.06005" lon="1.81189">
        <ele>446</ele>
        <time>2009-08-30T07:21:55Z</time>
      </trkpt>
      <trkpt lat="44.06002" lon="1.81196">
        <ele>438</ele>
        <time>2009-08-30T07:22:06Z</time>
      </trkpt>
      <trkpt lat="44.05982" lon="1.81241">
        <ele>433</ele>
        <time>2009-08-30T07:22:16Z</time>
      </trkpt>
      <trkpt lat="44.05954" lon="1.81296">
        <ele>424</ele>
        <time>2009-08-30T07:22:27Z</time>
      </trkpt>
      <trkpt lat="44.05948" lon="1.81312">
        <ele>421</ele>
        <time>2009-08-30T07:22:32Z</time>
      </trkpt>
      <trkpt lat="44.05938" lon="1.81349">
        <ele>420</ele>
        <time>2009-08-30T07:22:44Z</time>
      </trkpt>
      <trkpt lat="44.05932" lon="1.81387">
        <ele>412</ele>
        <time>2009-08-30T07:22:59Z</time>
      </trkpt>
      <trkpt lat="44.0595" lon="1.81421">
        <ele>404</ele>
        <time>2009-08-30T07:23:03Z</time>
      </trkpt>
      <trkpt lat="44.05925" lon="1.81454">
        <ele>411</ele>
        <time>2009-08-30T07:23:13Z</time>
      </trkpt>
      <trkpt lat="44.05925" lon="1.81461">
        <ele>408</ele>
        <time>2009-08-30T07:23:15Z</time>
      </trkpt>
      <trkpt lat="44.05932" lon="1.81478">
        <ele>399</ele>
        <time>2009-08-30T07:23:24Z</time>
      </trkpt>
      <trkpt lat="44.05926" lon="1.81444">
        <ele>384</ele>
        <time>2009-08-30T07:23:37Z</time>
      </trkpt>
      <trkpt lat="44.05926" lon="1.81444">
        <ele>384</ele>
        <time>2009-08-30T07:24:22Z</time>
      </trkpt>
      <trkpt lat="44.05847" lon="1.81607">
        <ele>382</ele>
        <time>2009-08-30T07:24:35Z</time>
      </trkpt>
      <trkpt lat="44.05833" lon="1.81621">
        <ele>380</ele>
        <time>2009-08-30T07:24:39Z</time>
      </trkpt>
      <trkpt lat="44.05808" lon="1.81646">
        <ele>378</ele>
        <time>2009-08-30T07:24:45Z</time>
      </trkpt>
      <trkpt lat="44.05794" lon="1.81659">
        <ele>377</ele>
        <time>2009-08-30T07:24:48Z</time>
      </trkpt>
      <trkpt lat="44.05728" lon="1.81666">
        <ele>379</ele>
        <time>2009-08-30T07:25:00Z</time>
      </trkpt>
      <trkpt lat="44.05704" lon="1.81679">
        <ele>377</ele>
        <time>2009-08-30T07:25:05Z</time>
      </trkpt>
      <trkpt lat="44.05692" lon="1.81693">
        <ele>376</ele>
        <time>2009-08-30T07:25:08Z</time>
      </trkpt>
      <trkpt lat="44.05675" lon="1.81725">
        <ele>375</ele>
        <time>2009-08-30T07:25:14Z</time>
      </trkpt>
      <trkpt lat="44.05661" lon="1.81744">
        <ele>375</ele>
        <time>2009-08-30T07:25:18Z</time>
      </trkpt>
      <trkpt lat="44.05641" lon="1.81755">
        <ele>373</ele>
        <time>2009-08-30T07:25:22Z</time>
      </trkpt>
      <trkpt lat="44.05614" lon="1.8176">
        <ele>371</ele>
        <time>2009-08-30T07:25:26Z</time>
      </trkpt>
      <trkpt lat="44.05589" lon="1.81774">
        <ele>370</ele>
        <time>2009-08-30T07:25:30Z</time>
      </trkpt>
      <trkpt lat="44.0554" lon="1.8183">
        <ele>367</ele>
        <time>2009-08-30T07:25:40Z</time>
      </trkpt>
      <trkpt lat="44.05504" lon="1.81885">
        <ele>367</ele>
        <time>2009-08-30T07:25:51Z</time>
      </trkpt>
      <trkpt lat="44.05488" lon="1.81902">
        <ele>369</ele>
        <time>2009-08-30T07:25:56Z</time>
      </trkpt>
      <trkpt lat="44.05442" lon="1.81905">
        <ele>374</ele>
        <time>2009-08-30T07:26:09Z</time>
      </trkpt>
      <trkpt lat="44.05405" lon="1.81906">
        <ele>376</ele>
        <time>2009-08-30T07:26:18Z</time>
      </trkpt>
      <trkpt lat="44.0538" lon="1.81923">
        <ele>377</ele>
        <time>2009-08-30T07:26:23Z</time>
      </trkpt>
      <trkpt lat="44.05369" lon="1.81935">
        <ele>377</ele>
        <time>2009-08-30T07:26:26Z</time>
      </trkpt>
      <trkpt lat="44.05342" lon="1.81969">
        <ele>377</ele>
        <time>2009-08-30T07:26:33Z</time>
      </trkpt>
      <trkpt lat="44.05319" lon="1.82008">
        <ele>375</ele>
        <time>2009-08-30T07:26:39Z</time>
      </trkpt>
      <trkpt lat="44.05302" lon="1.82044">
        <ele>373</ele>
        <time>2009-08-30T07:26:44Z</time>
      </trkpt>
      <trkpt lat="44.05293" lon="1.82062">
        <ele>371</ele>
        <time>2009-08-30T07:26:46Z</time>
      </trkpt>
      <trkpt lat="44.05282" lon="1.82109">
        <ele>369</ele>
        <time>2009-08-30T07:26:51Z</time>
      </trkpt>
      <trkpt lat="44.05278" lon="1.82142">
        <ele>368</ele>
        <time>2009-08-30T07:26:55Z</time>
      </trkpt>
      <trkpt lat="44.05257" lon="1.82174">
        <ele>373</ele>
        <time>2009-08-30T07:27:02Z</time>
      </trkpt>
      <trkpt lat="44.05232" lon="1.82186">
        <ele>376</ele>
        <time>2009-08-30T07:27:08Z</time>
      </trkpt>
      <trkpt lat="44.05173" lon="1.8221">
        <ele>384</ele>
        <time>2009-08-30T07:27:23Z</time>
      </trkpt>
      <trkpt lat="44.05128" lon="1.82234">
        <ele>385</ele>
        <time>2009-08-30T07:27:36Z</time>
      </trkpt>
      <trkpt lat="44.05079" lon="1.82276">
        <ele>383</ele>
        <time>2009-08-30T07:27:47Z</time>
      </trkpt>
      <trkpt lat="44.05047" lon="1.82294">
        <ele>383</ele>
        <time>2009-08-30T07:27:54Z</time>
      </trkpt>
      <trkpt lat="44.05035" lon="1.82313">
        <ele>384</ele>
        <time>2009-08-30T07:27:59Z</time>
      </trkpt>
      <trkpt lat="44.05024" lon="1.82378">
        <ele>389</ele>
        <time>2009-08-30T07:28:14Z</time>
      </trkpt>
      <trkpt lat="44.05023" lon="1.82427">
        <ele>392</ele>
        <time>2009-08-30T07:28:25Z</time>
      </trkpt>
      <trkpt lat="44.05013" lon="1.82459">
        <ele>389</ele>
        <time>2009-08-30T07:28:32Z</time>
      </trkpt>
      <trkpt lat="44.05007" lon="1.82482">
        <ele>391</ele>
        <time>2009-08-30T07:28:36Z</time>
      </trkpt>
      <trkpt lat="44.04984" lon="1.82565">
        <ele>389</ele>
        <time>2009-08-30T07:28:49Z</time>
      </trkpt>
      <trkpt lat="44.04982" lon="1.82576">
        <ele>391</ele>
        <time>2009-08-30T07:28:51Z</time>
      </trkpt>
      <trkpt lat="44.0496" lon="1.8268">
        <ele>397</ele>
        <time>2009-08-30T07:29:09Z</time>
      </trkpt>
      <trkpt lat="44.04939" lon="1.82754">
        <ele>394</ele>
        <time>2009-08-30T07:29:22Z</time>
      </trkpt>
      <trkpt lat="44.04929" lon="1.82776">
        <ele>392</ele>
        <time>2009-08-30T07:29:26Z</time>
      </trkpt>
      <trkpt lat="44.04924" lon="1.82798">
        <ele>390</ele>
        <time>2009-08-30T07:29:29Z</time>
      </trkpt>
      <trkpt lat="44.04921" lon="1.82823">
        <ele>388</ele>
        <time>2009-08-30T07:29:32Z</time>
      </trkpt>
      <trkpt lat="44.04923" lon="1.82909">
        <ele>387</ele>
        <time>2009-08-30T07:29:43Z</time>
      </trkpt>
      <trkpt lat="44.04927" lon="1.83024">
        <ele>387</ele>
        <time>2009-08-30T07:30:00Z</time>
      </trkpt>
      <trkpt lat="44.04922" lon="1.83099">
        <ele>385</ele>
        <time>2009-08-30T07:30:11Z</time>
      </trkpt>
      <trkpt lat="44.04919" lon="1.83128">
        <ele>384</ele>
        <time>2009-08-30T07:30:15Z</time>
      </trkpt>
      <trkpt lat="44.04919" lon="1.83146">
        <ele>382</ele>
        <time>2009-08-30T07:30:17Z</time>
      </trkpt>
      <trkpt lat="44.04915" lon="1.83163">
        <ele>380</ele>
        <time>2009-08-30T07:30:20Z</time>
      </trkpt>
      <trkpt lat="44.04904" lon="1.8319">
        <ele>379</ele>
        <time>2009-08-30T07:30:22Z</time>
      </trkpt>
      <trkpt lat="44.04881" lon="1.83217">
        <ele>376</ele>
        <time>2009-08-30T07:30:26Z</time>
      </trkpt>
      <trkpt lat="44.04826" lon="1.83284">
        <ele>370</ele>
        <time>2009-08-30T07:30:37Z</time>
      </trkpt>
      <trkpt lat="44.04822" lon="1.83286">
        <ele>369</ele>
        <time>2009-08-30T07:30:38Z</time>
      </trkpt>
      <trkpt lat="44.04825" lon="1.83296">
        <ele>368</ele>
        <time>2009-08-30T07:30:41Z</time>
      </trkpt>
      <trkpt lat="44.04782" lon="1.83358">
        <ele>364</ele>
        <time>2009-08-30T07:30:53Z</time>
      </trkpt>
      <trkpt lat="44.04758" lon="1.834">
        <ele>365</ele>
        <time>2009-08-30T07:31:02Z</time>
      </trkpt>
      <trkpt lat="44.04736" lon="1.83446">
        <ele>361</ele>
        <time>2009-08-30T07:31:09Z</time>
      </trkpt>
      <trkpt lat="44.04717" lon="1.83486">
        <ele>353</ele>
        <time>2009-08-30T07:31:16Z</time>
      </trkpt>
      <trkpt lat="44.04703" lon="1.83514">
        <ele>348</ele>
        <time>2009-08-30T07:31:21Z</time>
      </trkpt>
      <trkpt lat="44.04692" lon="1.83531">
        <ele>346</ele>
        <time>2009-08-30T07:31:24Z</time>
      </trkpt>
      <trkpt lat="44.04669" lon="1.83583">
        <ele>342</ele>
        <time>2009-08-30T07:31:33Z</time>
      </trkpt>
      <trkpt lat="44.04654" lon="1.83616">
        <ele>338</ele>
        <time>2009-08-30T07:31:38Z</time>
      </trkpt>
      <trkpt lat="44.04618" lon="1.83697">
        <ele>331</ele>
        <time>2009-08-30T07:31:52Z</time>
      </trkpt>
      <trkpt lat="44.04596" lon="1.83754">
        <ele>323</ele>
        <time>2009-08-30T07:32:06Z</time>
      </trkpt>
      <trkpt lat="44.04598" lon="1.83771">
        <ele>318</ele>
        <time>2009-08-30T07:32:14Z</time>
      </trkpt>
      <trkpt lat="44.04621" lon="1.83783">
        <ele>312</ele>
        <time>2009-08-30T07:32:26Z</time>
      </trkpt>
      <trkpt lat="44.04673" lon="1.83779">
        <ele>305</ele>
        <time>2009-08-30T07:32:39Z</time>
      </trkpt>
      <trkpt lat="44.04678" lon="1.83777">
        <ele>305</ele>
        <time>2009-08-30T07:32:41Z</time>
      </trkpt>
      <trkpt lat="44.04682" lon="1.83794">
        <ele>302</ele>
        <time>2009-08-30T07:32:48Z</time>
      </trkpt>
      <trkpt lat="44.04671" lon="1.83833">
        <ele>300</ele>
        <time>2009-08-30T07:33:00Z</time>
      </trkpt>
      <trkpt lat="44.04649" lon="1.83879">
        <ele>295</ele>
        <time>2009-08-30T07:33:12Z</time>
      </trkpt>
      <trkpt lat="44.04612" lon="1.83921">
        <ele>286</ele>
        <time>2009-08-30T07:33:24Z</time>
      </trkpt>
      <trkpt lat="44.04586" lon="1.83957">
        <ele>281</ele>
        <time>2009-08-30T07:33:35Z</time>
      </trkpt>
      <trkpt lat="44.04568" lon="1.83995">
        <ele>274</ele>
        <time>2009-08-30T07:33:46Z</time>
      </trkpt>
      <trkpt lat="44.04577" lon="1.84019">
        <ele>270</ele>
        <time>2009-08-30T07:33:55Z</time>
      </trkpt>
      <trkpt lat="44.04575" lon="1.84025">
        <ele>270</ele>
        <time>2009-08-30T07:33:57Z</time>
      </trkpt>
      <trkpt lat="44.04546" lon="1.84064">
        <ele>264</ele>
        <time>2009-08-30T07:34:09Z</time>
      </trkpt>
      <trkpt lat="44.04516" lon="1.841">
        <ele>254</ele>
        <time>2009-08-30T07:34:20Z</time>
      </trkpt>
      <trkpt lat="44.04467" lon="1.84113">
        <ele>252</ele>
        <time>2009-08-30T07:34:31Z</time>
      </trkpt>
      <trkpt lat="44.04461" lon="1.84145">
        <ele>251</ele>
        <time>2009-08-30T07:34:39Z</time>
      </trkpt>
      <trkpt lat="44.04449" lon="1.84204">
        <ele>249</ele>
        <time>2009-08-30T07:34:49Z</time>
      </trkpt>
      <trkpt lat="44.04433" lon="1.84224">
        <ele>247</ele>
        <time>2009-08-30T07:34:54Z</time>
      </trkpt>
      <trkpt lat="44.04372" lon="1.84266">
        <ele>244</ele>
        <time>2009-08-30T07:35:09Z</time>
      </trkpt>
      <trkpt lat="44.04374" lon="1.84291">
        <ele>242</ele>
        <time>2009-08-30T07:35:15Z</time>
      </trkpt>
      <trkpt lat="44.0439" lon="1.84347">
        <ele>242</ele>
        <time>2009-08-30T07:35:26Z</time>
      </trkpt>
      <trkpt lat="44.04381" lon="1.84358">
        <ele>243</ele>
        <time>2009-08-30T07:35:30Z</time>
      </trkpt>
      <trkpt lat="44.04346" lon="1.84403">
        <ele>245</ele>
        <time>2009-08-30T07:35:46Z</time>
      </trkpt>
      <trkpt lat="44.04335" lon="1.84439">
        <ele>249</ele>
        <time>2009-08-30T07:35:58Z</time>
      </trkpt>
      <trkpt lat="44.04291" lon="1.84461">
        <ele>248</ele>
        <time>2009-08-30T07:36:10Z</time>
      </trkpt>
      <trkpt lat="44.04265" lon="1.84485">
        <ele>245</ele>
        <time>2009-08-30T07:36:16Z</time>
      </trkpt>
      <trkpt lat="44.04257" lon="1.84494">
        <ele>244</ele>
        <time>2009-08-30T07:36:18Z</time>
      </trkpt>
      <trkpt lat="44.04243" lon="1.84517">
        <ele>244</ele>
        <time>2009-08-30T07:36:22Z</time>
      </trkpt>
      <trkpt lat="44.04224" lon="1.84585">
        <ele>247</ele>
        <time>2009-08-30T07:36:36Z</time>
      </trkpt>
      <trkpt lat="44.04206" lon="1.84618">
        <ele>248</ele>
        <time>2009-08-30T07:36:44Z</time>
      </trkpt>
      <trkpt lat="44.04155" lon="1.847">
        <ele>242</ele>
        <time>2009-08-30T07:36:59Z</time>
      </trkpt>
      <trkpt lat="44.04127" lon="1.84747">
        <ele>242</ele>
        <time>2009-08-30T07:37:06Z</time>
      </trkpt>
      <trkpt lat="44.04113" lon="1.84771">
        <ele>241</ele>
        <time>2009-08-30T07:37:10Z</time>
      </trkpt>
      <trkpt lat="44.04103" lon="1.84793">
        <ele>240</ele>
        <time>2009-08-30T07:37:14Z</time>
      </trkpt>
      <trkpt lat="44.04085" lon="1.84838">
        <ele>244</ele>
        <time>2009-08-30T07:37:25Z</time>
      </trkpt>
      <trkpt lat="44.04068" lon="1.84871">
        <ele>247</ele>
        <time>2009-08-30T07:37:38Z</time>
      </trkpt>
      <trkpt lat="44.04053" lon="1.8491">
        <ele>252</ele>
        <time>2009-08-30T07:37:52Z</time>
      </trkpt>
      <trkpt lat="44.04041" lon="1.84942">
        <ele>252</ele>
        <time>2009-08-30T07:38:05Z</time>
      </trkpt>
      <trkpt lat="44.04032" lon="1.8498">
        <ele>255</ele>
        <time>2009-08-30T07:38:19Z</time>
      </trkpt>
      <trkpt lat="44.0402" lon="1.85016">
        <ele>259</ele>
        <time>2009-08-30T07:38:33Z</time>
      </trkpt>
      <trkpt lat="44.04009" lon="1.85056">
        <ele>263</ele>
        <time>2009-08-30T07:38:47Z</time>
      </trkpt>
      <trkpt lat="44.03994" lon="1.85099">
        <ele>269</ele>
        <time>2009-08-30T07:39:04Z</time>
      </trkpt>
      <trkpt lat="44.0397" lon="1.85146">
        <ele>269</ele>
        <time>2009-08-30T07:39:20Z</time>
      </trkpt>
      <trkpt lat="44.03948" lon="1.85195">
        <ele>272</ele>
        <time>2009-08-30T07:39:37Z</time>
      </trkpt>
      <trkpt lat="44.0394" lon="1.85237">
        <ele>273</ele>
        <time>2009-08-30T07:39:50Z</time>
      </trkpt>
      <trkpt lat="44.03945" lon="1.85286">
        <ele>273</ele>
        <time>2009-08-30T07:40:04Z</time>
      </trkpt>
      <trkpt lat="44.03949" lon="1.8533">
        <ele>275</ele>
        <time>2009-08-30T07:40:20Z</time>
      </trkpt>
      <trkpt lat="44.03949" lon="1.8533">
        <ele>276</ele>
        <time>2009-08-30T07:41:20Z</time>
      </trkpt>
      <trkpt lat="44.03949" lon="1.8533">
        <ele>276</ele>
        <time>2009-08-30T07:41:24Z</time>
      </trkpt>
      <trkpt lat="44.03949" lon="1.8533">
        <ele>272</ele>
        <time>2009-08-30T07:41:34Z</time>
      </trkpt>
      <trkpt lat="44.03957" lon="1.85459">
        <ele>256</ele>
        <time>2009-08-30T07:41:43Z</time>
      </trkpt>
      <trkpt lat="44.03979" lon="1.85586">
        <ele>246</ele>
        <time>2009-08-30T07:41:53Z</time>
      </trkpt>
      <trkpt lat="44.04001" lon="1.85697">
        <ele>242</ele>
        <time>2009-08-30T07:42:03Z</time>
      </trkpt>
      <trkpt lat="44.04015" lon="1.8573">
        <ele>242</ele>
        <time>2009-08-30T07:42:12Z</time>
      </trkpt>
      <trkpt lat="44.04017" lon="1.85735">
        <ele>242</ele>
        <time>2009-08-30T07:42:15Z</time>
      </trkpt>
      <trkpt lat="44.0402" lon="1.85744">
        <ele>243</ele>
        <time>2009-08-30T07:42:19Z</time>
      </trkpt>
      <trkpt lat="44.04022" lon="1.85748">
        <ele>243</ele>
        <time>2009-08-30T07:42:22Z</time>
      </trkpt>
      <trkpt lat="44.04029" lon="1.85772">
        <ele>245</ele>
        <time>2009-08-30T07:42:36Z</time>
      </trkpt>
      <trkpt lat="44.04039" lon="1.85794">
        <ele>250</ele>
        <time>2009-08-30T07:42:52Z</time>
      </trkpt>
      <trkpt lat="44.04049" lon="1.85819">
        <ele>255</ele>
        <time>2009-08-30T07:43:09Z</time>
      </trkpt>
      <trkpt lat="44.04051" lon="1.85825">
        <ele>256</ele>
        <time>2009-08-30T07:43:13Z</time>
      </trkpt>
      <trkpt lat="44.04052" lon="1.85828">
        <ele>257</ele>
        <time>2009-08-30T07:43:15Z</time>
      </trkpt>
      <trkpt lat="44.04052" lon="1.85831">
        <ele>257</ele>
        <time>2009-08-30T07:43:17Z</time>
      </trkpt>
      <trkpt lat="44.04064" lon="1.85836">
        <ele>261</ele>
        <time>2009-08-30T07:43:26Z</time>
      </trkpt>
      <trkpt lat="44.04075" lon="1.85838">
        <ele>268</ele>
        <time>2009-08-30T07:43:37Z</time>
      </trkpt>
      <trkpt lat="44.04081" lon="1.85852">
        <ele>269</ele>
        <time>2009-08-30T07:43:49Z</time>
      </trkpt>
      <trkpt lat="44.04085" lon="1.85884">
        <ele>273</ele>
        <time>2009-08-30T07:44:06Z</time>
      </trkpt>
      <trkpt lat="44.04085" lon="1.85915">
        <ele>274</ele>
        <time>2009-08-30T07:44:18Z</time>
      </trkpt>
      <trkpt lat="44.04098" lon="1.85946">
        <ele>271</ele>
        <time>2009-08-30T07:44:34Z</time>
      </trkpt>
      <trkpt lat="44.04106" lon="1.85963">
        <ele>268</ele>
        <time>2009-08-30T07:44:38Z</time>
      </trkpt>
      <trkpt lat="44.04132" lon="1.86003">
        <ele>260</ele>
        <time>2009-08-30T07:44:47Z</time>
      </trkpt>
      <trkpt lat="44.04137" lon="1.86012">
        <ele>258</ele>
        <time>2009-08-30T07:44:49Z</time>
      </trkpt>
      <trkpt lat="44.04146" lon="1.86029">
        <ele>253</ele>
        <time>2009-08-30T07:44:54Z</time>
      </trkpt>
      <trkpt lat="44.0413" lon="1.86113">
        <ele>250</ele>
        <time>2009-08-30T07:45:05Z</time>
      </trkpt>
      <trkpt lat="44.04115" lon="1.86195">
        <ele>238</ele>
        <time>2009-08-30T07:45:16Z</time>
      </trkpt>
      <trkpt lat="44.04104" lon="1.86283">
        <ele>235</ele>
        <time>2009-08-30T07:45:26Z</time>
      </trkpt>
      <trkpt lat="44.04096" lon="1.86334">
        <ele>239</ele>
        <time>2009-08-30T07:45:35Z</time>
      </trkpt>
      <trkpt lat="44.04078" lon="1.86375">
        <ele>241</ele>
        <time>2009-08-30T07:45:51Z</time>
      </trkpt>
      <trkpt lat="44.04058" lon="1.86404">
        <ele>240</ele>
        <time>2009-08-30T07:46:05Z</time>
      </trkpt>
      <trkpt lat="44.04027" lon="1.86444">
        <ele>239</ele>
        <time>2009-08-30T07:46:21Z</time>
      </trkpt>
      <trkpt lat="44.04021" lon="1.86464">
        <ele>239</ele>
        <time>2009-08-30T07:46:24Z</time>
      </trkpt>
      <trkpt lat="44.04009" lon="1.86497">
        <ele>239</ele>
        <time>2009-08-30T07:46:28Z</time>
      </trkpt>
      <trkpt lat="44.03975" lon="1.86516">
        <ele>240</ele>
        <time>2009-08-30T07:46:35Z</time>
      </trkpt>
      <trkpt lat="44.03972" lon="1.86516">
        <ele>240</ele>
        <time>2009-08-30T07:46:36Z</time>
      </trkpt>
      <trkpt lat="44.03959" lon="1.86515">
        <ele>241</ele>
        <time>2009-08-30T07:46:43Z</time>
      </trkpt>
      <trkpt lat="44.03954" lon="1.86535">
        <ele>243</ele>
        <time>2009-08-30T07:46:48Z</time>
      </trkpt>
      <trkpt lat="44.03966" lon="1.86591">
        <ele>242</ele>
        <time>2009-08-30T07:47:04Z</time>
      </trkpt>
      <trkpt lat="44.03988" lon="1.86624">
        <ele>244</ele>
        <time>2009-08-30T07:47:19Z</time>
      </trkpt>
      <trkpt lat="44.04008" lon="1.86643">
        <ele>249</ele>
        <time>2009-08-30T07:47:31Z</time>
      </trkpt>
      <trkpt lat="44.04013" lon="1.86647">
        <ele>250</ele>
        <time>2009-08-30T07:47:36Z</time>
      </trkpt>
      <trkpt lat="44.04011" lon="1.86659">
        <ele>250</ele>
        <time>2009-08-30T07:47:40Z</time>
      </trkpt>
      <trkpt lat="44.04004" lon="1.86666">
        <ele>252</ele>
        <time>2009-08-30T07:47:45Z</time>
      </trkpt>
      <trkpt lat="44.03987" lon="1.86691">
        <ele>252</ele>
        <time>2009-08-30T07:47:59Z</time>
      </trkpt>
      <trkpt lat="44.03967" lon="1.8671">
        <ele>249</ele>
        <time>2009-08-30T07:48:13Z</time>
      </trkpt>
      <trkpt lat="44.03959" lon="1.86718">
        <ele>250</ele>
        <time>2009-08-30T07:48:18Z</time>
      </trkpt>
      <trkpt lat="44.03953" lon="1.86726">
        <ele>250</ele>
        <time>2009-08-30T07:48:24Z</time>
      </trkpt>
      <trkpt lat="44.03944" lon="1.86737">
        <ele>251</ele>
        <time>2009-08-30T07:48:31Z</time>
      </trkpt>
      <trkpt lat="44.03936" lon="1.86748">
        <ele>251</ele>
        <time>2009-08-30T07:48:37Z</time>
      </trkpt>
      <trkpt lat="44.03919" lon="1.86771">
        <ele>251</ele>
        <time>2009-08-30T07:48:51Z</time>
      </trkpt>
      <trkpt lat="44.03914" lon="1.8678">
        <ele>249</ele>
        <time>2009-08-30T07:48:56Z</time>
      </trkpt>
      <trkpt lat="44.03908" lon="1.86792">
        <ele>251</ele>
        <time>2009-08-30T07:49:02Z</time>
      </trkpt>
      <trkpt lat="44.03889" lon="1.86826">
        <ele>259</ele>
        <time>2009-08-30T07:49:16Z</time>
      </trkpt>
      <trkpt lat="44.03874" lon="1.86861">
        <ele>264</ele>
        <time>2009-08-30T07:49:29Z</time>
      </trkpt>
      <trkpt lat="44.03858" lon="1.86907">
        <ele>264</ele>
        <time>2009-08-30T07:49:40Z</time>
      </trkpt>
      <trkpt lat="44.03855" lon="1.86912">
        <ele>264</ele>
        <time>2009-08-30T07:49:41Z</time>
      </trkpt>
      <trkpt lat="44.0383" lon="1.86962">
        <ele>265</ele>
        <time>2009-08-30T07:49:51Z</time>
      </trkpt>
      <trkpt lat="44.03807" lon="1.87001">
        <ele>266</ele>
        <time>2009-08-30T07:50:02Z</time>
      </trkpt>
      <trkpt lat="44.03788" lon="1.87056">
        <ele>268</ele>
        <time>2009-08-30T07:50:15Z</time>
      </trkpt>
      <trkpt lat="44.03763" lon="1.87081">
        <ele>269</ele>
        <time>2009-08-30T07:50:25Z</time>
      </trkpt>
      <trkpt lat="44.03739" lon="1.87081">
        <ele>272</ele>
        <time>2009-08-30T07:50:38Z</time>
      </trkpt>
      <trkpt lat="44.03718" lon="1.87083">
        <ele>275</ele>
        <time>2009-08-30T07:50:51Z</time>
      </trkpt>
      <trkpt lat="44.03692" lon="1.8707">
        <ele>278</ele>
        <time>2009-08-30T07:51:08Z</time>
      </trkpt>
      <trkpt lat="44.03679" lon="1.87063">
        <ele>283</ele>
        <time>2009-08-30T07:51:22Z</time>
      </trkpt>
      <trkpt lat="44.03679" lon="1.87063">
        <ele>284</ele>
        <time>2009-08-30T07:55:41Z</time>
      </trkpt>
      <trkpt lat="44.03653" lon="1.87056">
        <ele>283</ele>
        <time>2009-08-30T07:55:54Z</time>
      </trkpt>
      <trkpt lat="44.0362" lon="1.87093">
        <ele>283</ele>
        <time>2009-08-30T07:56:06Z</time>
      </trkpt>
      <trkpt lat="44.03584" lon="1.87112">
        <ele>285</ele>
        <time>2009-08-30T07:56:19Z</time>
      </trkpt>
      <trkpt lat="44.03555" lon="1.87114">
        <ele>286</ele>
        <time>2009-08-30T07:56:32Z</time>
      </trkpt>
      <trkpt lat="44.03516" lon="1.87093">
        <ele>282</ele>
        <time>2009-08-30T07:56:45Z</time>
      </trkpt>
      <trkpt lat="44.03463" lon="1.87068">
        <ele>286</ele>
        <time>2009-08-30T07:57:00Z</time>
      </trkpt>
      <trkpt lat="44.034" lon="1.87016">
        <ele>287</ele>
        <time>2009-08-30T07:57:19Z</time>
      </trkpt>
      <trkpt lat="44.03342" lon="1.8701">
        <ele>287</ele>
        <time>2009-08-30T07:57:34Z</time>
      </trkpt>
      <trkpt lat="44.0331" lon="1.87005">
        <ele>286</ele>
        <time>2009-08-30T07:57:40Z</time>
      </trkpt>
      <trkpt lat="44.03288" lon="1.86994">
        <ele>285</ele>
        <time>2009-08-30T07:57:44Z</time>
      </trkpt>
      <trkpt lat="44.03233" lon="1.86986">
        <ele>284</ele>
        <time>2009-08-30T07:57:52Z</time>
      </trkpt>
      <trkpt lat="44.0319" lon="1.87019">
        <ele>282</ele>
        <time>2009-08-30T07:58:00Z</time>
      </trkpt>
      <trkpt lat="44.03189" lon="1.87027">
        <ele>282</ele>
        <time>2009-08-30T07:58:01Z</time>
      </trkpt>
      <trkpt lat="44.03186" lon="1.87054">
        <ele>280</ele>
        <time>2009-08-30T07:58:07Z</time>
      </trkpt>
      <trkpt lat="44.03148" lon="1.87055">
        <ele>279</ele>
        <time>2009-08-30T07:58:14Z</time>
      </trkpt>
      <trkpt lat="44.03112" lon="1.87032">
        <ele>277</ele>
        <time>2009-08-30T07:58:21Z</time>
      </trkpt>
      <trkpt lat="44.03064" lon="1.87037">
        <ele>277</ele>
        <time>2009-08-30T07:58:29Z</time>
      </trkpt>
      <trkpt lat="44.02998" lon="1.87034">
        <ele>278</ele>
        <time>2009-08-30T07:58:43Z</time>
      </trkpt>
      <trkpt lat="44.02954" lon="1.87029">
        <ele>279</ele>
        <time>2009-08-30T07:58:57Z</time>
      </trkpt>
      <trkpt lat="44.02921" lon="1.8704">
        <ele>280</ele>
        <time>2009-08-30T07:59:08Z</time>
      </trkpt>
      <trkpt lat="44.02877" lon="1.87074">
        <ele>280</ele>
        <time>2009-08-30T07:59:21Z</time>
      </trkpt>
      <trkpt lat="44.02844" lon="1.87093">
        <ele>278</ele>
        <time>2009-08-30T07:59:30Z</time>
      </trkpt>
      <trkpt lat="44.02817" lon="1.8711">
        <ele>274</ele>
        <time>2009-08-30T07:59:36Z</time>
      </trkpt>
      <trkpt lat="44.02739" lon="1.87166">
        <ele>270</ele>
        <time>2009-08-30T07:59:51Z</time>
      </trkpt>
      <trkpt lat="44.02702" lon="1.87177">
        <ele>266</ele>
        <time>2009-08-30T07:59:58Z</time>
      </trkpt>
      <trkpt lat="44.02676" lon="1.87192">
        <ele>262</ele>
        <time>2009-08-30T08:00:03Z</time>
      </trkpt>
      <trkpt lat="44.02663" lon="1.87204">
        <ele>260</ele>
        <time>2009-08-30T08:00:06Z</time>
      </trkpt>
      <trkpt lat="44.0264" lon="1.87207">
        <ele>258</ele>
        <time>2009-08-30T08:00:12Z</time>
      </trkpt>
      <trkpt lat="44.02621" lon="1.87209">
        <ele>256</ele>
        <time>2009-08-30T08:00:17Z</time>
      </trkpt>
      <trkpt lat="44.02586" lon="1.87223">
        <ele>247</ele>
        <time>2009-08-30T08:00:25Z</time>
      </trkpt>
      <trkpt lat="44.02521" lon="1.87232">
        <ele>236</ele>
        <time>2009-08-30T08:00:38Z</time>
      </trkpt>
      <trkpt lat="44.02471" lon="1.87244">
        <ele>232</ele>
        <time>2009-08-30T08:00:46Z</time>
      </trkpt>
      <trkpt lat="44.02446" lon="1.87267">
        <ele>228</ele>
        <time>2009-08-30T08:00:51Z</time>
      </trkpt>
      <trkpt lat="44.02422" lon="1.87305">
        <ele>227</ele>
        <time>2009-08-30T08:00:56Z</time>
      </trkpt>
      <trkpt lat="44.02387" lon="1.8733">
        <ele>231</ele>
        <time>2009-08-30T08:01:07Z</time>
      </trkpt>
      <trkpt lat="44.02358" lon="1.8732">
        <ele>230</ele>
        <time>2009-08-30T08:01:13Z</time>
      </trkpt>
      <trkpt lat="44.02352" lon="1.87307">
        <ele>229</ele>
        <time>2009-08-30T08:01:17Z</time>
      </trkpt>
      <trkpt lat="44.02347" lon="1.87251">
        <ele>230</ele>
        <time>2009-08-30T08:01:27Z</time>
      </trkpt>
      <trkpt lat="44.02342" lon="1.87224">
        <ele>229</ele>
        <time>2009-08-30T08:01:31Z</time>
      </trkpt>
      <trkpt lat="44.02317" lon="1.87184">
        <ele>229</ele>
        <time>2009-08-30T08:01:38Z</time>
      </trkpt>
      <trkpt lat="44.0226" lon="1.87143">
        <ele>226</ele>
        <time>2009-08-30T08:01:51Z</time>
      </trkpt>
      <trkpt lat="44.02247" lon="1.87127">
        <ele>225</ele>
        <time>2009-08-30T08:01:55Z</time>
      </trkpt>
      <trkpt lat="44.02216" lon="1.87068">
        <ele>224</ele>
        <time>2009-08-30T08:02:08Z</time>
      </trkpt>
      <trkpt lat="44.02215" lon="1.87063">
        <ele>224</ele>
        <time>2009-08-30T08:02:09Z</time>
      </trkpt>
      <trkpt lat="44.02211" lon="1.87024">
        <ele>227</ele>
        <time>2009-08-30T08:02:16Z</time>
      </trkpt>
      <trkpt lat="44.02202" lon="1.87012">
        <ele>229</ele>
        <time>2009-08-30T08:02:22Z</time>
      </trkpt>
      <trkpt lat="44.02184" lon="1.87006">
        <ele>232</ele>
        <time>2009-08-30T08:02:36Z</time>
      </trkpt>
      <trkpt lat="44.02168" lon="1.86995">
        <ele>236</ele>
        <time>2009-08-30T08:02:50Z</time>
      </trkpt>
      <trkpt lat="44.02164" lon="1.86993">
        <ele>240</ele>
        <time>2009-08-30T08:03:06Z</time>
      </trkpt>
      <trkpt lat="44.0213" lon="1.87">
        <ele>241</ele>
        <time>2009-08-30T08:03:22Z</time>
      </trkpt>
      <trkpt lat="44.02112" lon="1.87">
        <ele>245</ele>
        <time>2009-08-30T08:03:35Z</time>
      </trkpt>
      <trkpt lat="44.02082" lon="1.86997">
        <ele>247</ele>
        <time>2009-08-30T08:03:50Z</time>
      </trkpt>
      <trkpt lat="44.02058" lon="1.86992">
        <ele>251</ele>
        <time>2009-08-30T08:04:02Z</time>
      </trkpt>
      <trkpt lat="44.02028" lon="1.86989">
        <ele>252</ele>
        <time>2009-08-30T08:04:19Z</time>
      </trkpt>
      <trkpt lat="44.02002" lon="1.86992">
        <ele>253</ele>
        <time>2009-08-30T08:04:35Z</time>
      </trkpt>
      <trkpt lat="44.01981" lon="1.87005">
        <ele>254</ele>
        <time>2009-08-30T08:04:51Z</time>
      </trkpt>
      <trkpt lat="44.01963" lon="1.87021">
        <ele>261</ele>
        <time>2009-08-30T08:05:06Z</time>
      </trkpt>
      <trkpt lat="44.01945" lon="1.87036">
        <ele>264</ele>
        <time>2009-08-30T08:05:20Z</time>
      </trkpt>
      <trkpt lat="44.01928" lon="1.87056">
        <ele>267</ele>
        <time>2009-08-30T08:05:35Z</time>
      </trkpt>
      <trkpt lat="44.01913" lon="1.87074">
        <ele>268</ele>
        <time>2009-08-30T08:05:49Z</time>
      </trkpt>
      <trkpt lat="44.01895" lon="1.87083">
        <ele>267</ele>
        <time>2009-08-30T08:06:02Z</time>
      </trkpt>
      <trkpt lat="44.01872" lon="1.87093">
        <ele>268</ele>
        <time>2009-08-30T08:06:15Z</time>
      </trkpt>
      <trkpt lat="44.01841" lon="1.87115">
        <ele>267</ele>
        <time>2009-08-30T08:06:31Z</time>
      </trkpt>
      <trkpt lat="44.01799" lon="1.8714">
        <ele>272</ele>
        <time>2009-08-30T08:06:45Z</time>
      </trkpt>
      <trkpt lat="44.01762" lon="1.87149">
        <ele>273</ele>
        <time>2009-08-30T08:06:58Z</time>
      </trkpt>
      <trkpt lat="44.01725" lon="1.87165">
        <ele>275</ele>
        <time>2009-08-30T08:07:09Z</time>
      </trkpt>
      <trkpt lat="44.01655" lon="1.87208">
        <ele>276</ele>
        <time>2009-08-30T08:07:27Z</time>
      </trkpt>
      <trkpt lat="44.01593" lon="1.87235">
        <ele>270</ele>
        <time>2009-08-30T08:07:40Z</time>
      </trkpt>
      <trkpt lat="44.0153" lon="1.87241">
        <ele>264</ele>
        <time>2009-08-30T08:07:49Z</time>
      </trkpt>
      <trkpt lat="44.01521" lon="1.87245">
        <ele>263</ele>
        <time>2009-08-30T08:07:50Z</time>
      </trkpt>
      <trkpt lat="44.01445" lon="1.87282">
        <ele>264</ele>
        <time>2009-08-30T08:08:02Z</time>
      </trkpt>
      <trkpt lat="44.01425" lon="1.87281">
        <ele>265</ele>
        <time>2009-08-30T08:08:07Z</time>
      </trkpt>
      <trkpt lat="44.01409" lon="1.87331">
        <ele>268</ele>
        <time>2009-08-30T08:08:18Z</time>
      </trkpt>
      <trkpt lat="44.01385" lon="1.87375">
        <ele>267</ele>
        <time>2009-08-30T08:08:30Z</time>
      </trkpt>
      <trkpt lat="44.01359" lon="1.87402">
        <ele>262</ele>
        <time>2009-08-30T08:08:35Z</time>
      </trkpt>
      <trkpt lat="44.01339" lon="1.87417">
        <ele>260</ele>
        <time>2009-08-30T08:08:38Z</time>
      </trkpt>
      <trkpt lat="44.01299" lon="1.87475">
        <ele>257</ele>
        <time>2009-08-30T08:08:45Z</time>
      </trkpt>
      <trkpt lat="44.01281" lon="1.87554">
        <ele>251</ele>
        <time>2009-08-30T08:08:56Z</time>
      </trkpt>
      <trkpt lat="44.01278" lon="1.87585">
        <ele>247</ele>
        <time>2009-08-30T08:09:00Z</time>
      </trkpt>
      <trkpt lat="44.01273" lon="1.87619">
        <ele>242</ele>
        <time>2009-08-30T08:09:05Z</time>
      </trkpt>
      <trkpt lat="44.01273" lon="1.87619">
        <ele>238</ele>
        <time>2009-08-30T08:09:10Z</time>
      </trkpt>
      <trkpt lat="44.01266" lon="1.87693">
        <ele>238</ele>
        <time>2009-08-30T08:09:15Z</time>
      </trkpt>
      <trkpt lat="44.0124" lon="1.87709">
        <ele>242</ele>
        <time>2009-08-30T08:09:28Z</time>
      </trkpt>
      <trkpt lat="44.01218" lon="1.87723">
        <ele>245</ele>
        <time>2009-08-30T08:09:37Z</time>
      </trkpt>
      <trkpt lat="44.01201" lon="1.87738">
        <ele>243</ele>
        <time>2009-08-30T08:09:42Z</time>
      </trkpt>
      <trkpt lat="44.01193" lon="1.8774">
        <ele>245</ele>
        <time>2009-08-30T08:09:45Z</time>
      </trkpt>
      <trkpt lat="44.01168" lon="1.87726">
        <ele>249</ele>
        <time>2009-08-30T08:09:59Z</time>
      </trkpt>
      <trkpt lat="44.01145" lon="1.877">
        <ele>248</ele>
        <time>2009-08-30T08:10:11Z</time>
      </trkpt>
      <trkpt lat="44.01107" lon="1.87668">
        <ele>248</ele>
        <time>2009-08-30T08:10:24Z</time>
      </trkpt>
      <trkpt lat="44.0107" lon="1.87646">
        <ele>247</ele>
        <time>2009-08-30T08:10:37Z</time>
      </trkpt>
      <trkpt lat="44.01061" lon="1.87641">
        <ele>242</ele>
        <time>2009-08-30T08:10:49Z</time>
      </trkpt>
      <trkpt lat="44.01054" lon="1.87638">
        <ele>241</ele>
        <time>2009-08-30T08:10:58Z</time>
      </trkpt>
      <trkpt lat="44.01027" lon="1.87619">
        <ele>236</ele>
        <time>2009-08-30T08:11:09Z</time>
      </trkpt>
      <trkpt lat="44.00989" lon="1.87611">
        <ele>233</ele>
        <time>2009-08-30T08:11:21Z</time>
      </trkpt>
      <trkpt lat="44.0096" lon="1.8758">
        <ele>232</ele>
        <time>2009-08-30T08:11:34Z</time>
      </trkpt>
      <trkpt lat="44.00919" lon="1.87549">
        <ele>235</ele>
        <time>2009-08-30T08:11:48Z</time>
      </trkpt>
      <trkpt lat="44.00874" lon="1.87547">
        <ele>237</ele>
        <time>2009-08-30T08:12:02Z</time>
      </trkpt>
      <trkpt lat="44.0084" lon="1.87571">
        <ele>236</ele>
        <time>2009-08-30T08:12:14Z</time>
      </trkpt>
      <trkpt lat="44.00828" lon="1.87598">
        <ele>238</ele>
        <time>2009-08-30T08:12:25Z</time>
      </trkpt>
      <trkpt lat="44.00807" lon="1.87629">
        <ele>240</ele>
        <time>2009-08-30T08:12:40Z</time>
      </trkpt>
      <trkpt lat="44.00783" lon="1.87648">
        <ele>242</ele>
        <time>2009-08-30T08:12:54Z</time>
      </trkpt>
      <trkpt lat="44.00766" lon="1.87638">
        <ele>245</ele>
        <time>2009-08-30T08:13:08Z</time>
      </trkpt>
      <trkpt lat="44.00756" lon="1.87607">
        <ele>247</ele>
        <time>2009-08-30T08:13:21Z</time>
      </trkpt>
      <trkpt lat="44.00739" lon="1.87581">
        <ele>251</ele>
        <time>2009-08-30T08:13:34Z</time>
      </trkpt>
      <trkpt lat="44.00718" lon="1.87567">
        <ele>253</ele>
        <time>2009-08-30T08:13:47Z</time>
      </trkpt>
      <trkpt lat="44.00703" lon="1.87583">
        <ele>253</ele>
        <time>2009-08-30T08:13:58Z</time>
      </trkpt>
      <trkpt lat="44.00682" lon="1.87626">
        <ele>256</ele>
        <time>2009-08-30T08:14:15Z</time>
      </trkpt>
      <trkpt lat="44.00665" lon="1.87664">
        <ele>258</ele>
        <time>2009-08-30T08:14:31Z</time>
      </trkpt>
      <trkpt lat="44.00648" lon="1.87708">
        <ele>265</ele>
        <time>2009-08-30T08:14:48Z</time>
      </trkpt>
      <trkpt lat="44.00634" lon="1.87745">
        <ele>268</ele>
        <time>2009-08-30T08:15:03Z</time>
      </trkpt>
      <trkpt lat="44.00623" lon="1.87784">
        <ele>269</ele>
        <time>2009-08-30T08:15:18Z</time>
      </trkpt>
      <trkpt lat="44.00612" lon="1.87827">
        <ele>270</ele>
        <time>2009-08-30T08:15:34Z</time>
      </trkpt>
      <trkpt lat="44.00607" lon="1.87864">
        <ele>269</ele>
        <time>2009-08-30T08:15:47Z</time>
      </trkpt>
      <trkpt lat="44.00603" lon="1.87918">
        <ele>271</ele>
        <time>2009-08-30T08:16:06Z</time>
      </trkpt>
      <trkpt lat="44.00598" lon="1.87967">
        <ele>273</ele>
        <time>2009-08-30T08:16:22Z</time>
      </trkpt>
      <trkpt lat="44.00582" lon="1.87992">
        <ele>268</ele>
        <time>2009-08-30T08:16:35Z</time>
      </trkpt>
      <trkpt lat="44.00572" lon="1.87994">
        <ele>266</ele>
        <time>2009-08-30T08:16:46Z</time>
      </trkpt>
      <trkpt lat="44.00571" lon="1.87994">
        <ele>266</ele>
        <time>2009-08-30T08:16:47Z</time>
      </trkpt>
      <trkpt lat="44.0057" lon="1.87993">
        <ele>265</ele>
        <time>2009-08-30T08:16:49Z</time>
      </trkpt>
      <trkpt lat="44.00565" lon="1.87991">
        <ele>264</ele>
        <time>2009-08-30T08:16:54Z</time>
      </trkpt>
      <trkpt lat="44.00556" lon="1.88003">
        <ele>262</ele>
        <time>2009-08-30T08:17:09Z</time>
      </trkpt>
      <trkpt lat="44.00527" lon="1.88009">
        <ele>258</ele>
        <time>2009-08-30T08:17:18Z</time>
      </trkpt>
      <trkpt lat="44.00498" lon="1.88023">
        <ele>258</ele>
        <time>2009-08-30T08:17:28Z</time>
      </trkpt>
      <trkpt lat="44.00472" lon="1.88027">
        <ele>256</ele>
        <time>2009-08-30T08:17:38Z</time>
      </trkpt>
      <trkpt lat="44.00442" lon="1.8801">
        <ele>255</ele>
        <time>2009-08-30T08:17:48Z</time>
      </trkpt>
      <trkpt lat="44.00419" lon="1.88006">
        <ele>252</ele>
        <time>2009-08-30T08:17:56Z</time>
      </trkpt>
      <trkpt lat="44.00412" lon="1.88045">
        <ele>252</ele>
        <time>2009-08-30T08:18:10Z</time>
      </trkpt>
      <trkpt lat="44.00408" lon="1.88048">
        <ele>252</ele>
        <time>2009-08-30T08:18:16Z</time>
      </trkpt>
      <trkpt lat="44.00404" lon="1.88051">
        <ele>251</ele>
        <time>2009-08-30T08:18:22Z</time>
      </trkpt>
      <trkpt lat="44.004" lon="1.88073">
        <ele>249</ele>
        <time>2009-08-30T08:18:38Z</time>
      </trkpt>
      <trkpt lat="44.00394" lon="1.88086">
        <ele>248</ele>
        <time>2009-08-30T08:18:55Z</time>
      </trkpt>
      <trkpt lat="44.00392" lon="1.88091">
        <ele>248</ele>
        <time>2009-08-30T08:18:59Z</time>
      </trkpt>
      <trkpt lat="44.00387" lon="1.88105">
        <ele>246</ele>
        <time>2009-08-30T08:19:14Z</time>
      </trkpt>
      <trkpt lat="44.00379" lon="1.88117">
        <ele>245</ele>
        <time>2009-08-30T08:19:23Z</time>
      </trkpt>
      <trkpt lat="44.00376" lon="1.88123">
        <ele>246</ele>
        <time>2009-08-30T08:19:27Z</time>
      </trkpt>
      <trkpt lat="44.00365" lon="1.88124">
        <ele>246</ele>
        <time>2009-08-30T08:19:40Z</time>
      </trkpt>
      <trkpt lat="44.00352" lon="1.88116">
        <ele>250</ele>
        <time>2009-08-30T08:19:56Z</time>
      </trkpt>
      <trkpt lat="44.00345" lon="1.88126">
        <ele>253</ele>
        <time>2009-08-30T08:20:10Z</time>
      </trkpt>
      <trkpt lat="44.00337" lon="1.8814">
        <ele>255</ele>
        <time>2009-08-30T08:20:27Z</time>
      </trkpt>
      <trkpt lat="44.00335" lon="1.88141">
        <ele>255</ele>
        <time>2009-08-30T08:20:30Z</time>
      </trkpt>
      <trkpt lat="44.0033" lon="1.88154">
        <ele>257</ele>
        <time>2009-08-30T08:20:38Z</time>
      </trkpt>
      <trkpt lat="44.00317" lon="1.88175">
        <ele>260</ele>
        <time>2009-08-30T08:20:53Z</time>
      </trkpt>
      <trkpt lat="44.0031" lon="1.88187">
        <ele>263</ele>
        <time>2009-08-30T08:21:02Z</time>
      </trkpt>
      <trkpt lat="44.00306" lon="1.88195">
        <ele>265</ele>
        <time>2009-08-30T08:21:06Z</time>
      </trkpt>
      <trkpt lat="44.00295" lon="1.88211">
        <ele>268</ele>
        <time>2009-08-30T08:21:18Z</time>
      </trkpt>
      <trkpt lat="44.0028" lon="1.88236">
        <ele>270</ele>
        <time>2009-08-30T08:21:34Z</time>
      </trkpt>
      <trkpt lat="44.00277" lon="1.88241">
        <ele>271</ele>
        <time>2009-08-30T08:21:37Z</time>
      </trkpt>
      <trkpt lat="44.00273" lon="1.88247">
        <ele>271</ele>
        <time>2009-08-30T08:21:41Z</time>
      </trkpt>
      <trkpt lat="44.00251" lon="1.88275">
        <ele>269</ele>
        <time>2009-08-30T08:21:56Z</time>
      </trkpt>
      <trkpt lat="44.0025" lon="1.88291">
        <ele>268</ele>
        <time>2009-08-30T08:22:08Z</time>
      </trkpt>
      <trkpt lat="44.00198" lon="1.88345">
        <ele>272</ele>
        <time>2009-08-30T08:22:22Z</time>
      </trkpt>
      <trkpt lat="44.00175" lon="1.88372">
        <ele>270</ele>
        <time>2009-08-30T08:22:35Z</time>
      </trkpt>
      <trkpt lat="44.00142" lon="1.88408">
        <ele>270</ele>
        <time>2009-08-30T08:22:48Z</time>
      </trkpt>
      <trkpt lat="44.0011" lon="1.88429">
        <ele>272</ele>
        <time>2009-08-30T08:23:03Z</time>
      </trkpt>
      <trkpt lat="44.00097" lon="1.88427">
        <ele>271</ele>
        <time>2009-08-30T08:23:09Z</time>
      </trkpt>
      <trkpt lat="44.00076" lon="1.88393">
        <ele>267</ele>
        <time>2009-08-30T08:23:23Z</time>
      </trkpt>
      <trkpt lat="44.00064" lon="1.88351">
        <ele>261</ele>
        <time>2009-08-30T08:23:35Z</time>
      </trkpt>
      <trkpt lat="44.00065" lon="1.88307">
        <ele>262</ele>
        <time>2009-08-30T08:23:46Z</time>
      </trkpt>
      <trkpt lat="44.0005" lon="1.88299">
        <ele>261</ele>
        <time>2009-08-30T08:23:55Z</time>
      </trkpt>
      <trkpt lat="44.0003" lon="1.88295">
        <ele>261</ele>
        <time>2009-08-30T08:24:07Z</time>
      </trkpt>
      <trkpt lat="44.00026" lon="1.88338">
        <ele>261</ele>
        <time>2009-08-30T08:24:22Z</time>
      </trkpt>
      <trkpt lat="44.00013" lon="1.88399">
        <ele>255</ele>
        <time>2009-08-30T08:24:30Z</time>
      </trkpt>
      <trkpt lat="43.99994" lon="1.88466">
        <ele>252</ele>
        <time>2009-08-30T08:24:37Z</time>
      </trkpt>
      <trkpt lat="43.99988" lon="1.88482">
        <ele>252</ele>
        <time>2009-08-30T08:24:39Z</time>
      </trkpt>
      <trkpt lat="43.99978" lon="1.88543">
        <ele>252</ele>
        <time>2009-08-30T08:24:49Z</time>
      </trkpt>
      <trkpt lat="43.99961" lon="1.88588">
        <ele>261</ele>
        <time>2009-08-30T08:25:04Z</time>
      </trkpt>
      <trkpt lat="43.99931" lon="1.88615">
        <ele>259</ele>
        <time>2009-08-30T08:25:17Z</time>
      </trkpt>
      <trkpt lat="43.999" lon="1.88634">
        <ele>261</ele>
        <time>2009-08-30T08:25:31Z</time>
      </trkpt>
      <trkpt lat="43.99898" lon="1.88638">
        <ele>261</ele>
        <time>2009-08-30T08:25:33Z</time>
      </trkpt>
      <trkpt lat="43.99896" lon="1.88644">
        <ele>262</ele>
        <time>2009-08-30T08:25:46Z</time>
      </trkpt>
      <trkpt lat="43.99896" lon="1.88645">
        <ele>262</ele>
        <time>2009-08-30T08:28:11Z</time>
      </trkpt>
      <trkpt lat="43.99893" lon="1.88672">
        <ele>262</ele>
        <time>2009-08-30T08:28:21Z</time>
      </trkpt>
      <trkpt lat="43.99874" lon="1.88731">
        <ele>260</ele>
        <time>2009-08-30T08:28:32Z</time>
      </trkpt>
      <trkpt lat="43.99877" lon="1.88749">
        <ele>260</ele>
        <time>2009-08-30T08:28:36Z</time>
      </trkpt>
      <trkpt lat="43.99908" lon="1.88799">
        <ele>254</ele>
        <time>2009-08-30T08:28:43Z</time>
      </trkpt>
      <trkpt lat="43.99922" lon="1.88835">
        <ele>249</ele>
        <time>2009-08-30T08:28:47Z</time>
      </trkpt>
      <trkpt lat="43.99941" lon="1.8894">
        <ele>243</ele>
        <time>2009-08-30T08:28:58Z</time>
      </trkpt>
      <trkpt lat="43.99945" lon="1.88956">
        <ele>240</ele>
        <time>2009-08-30T08:29:02Z</time>
      </trkpt>
      <trkpt lat="43.99956" lon="1.88988">
        <ele>243</ele>
        <time>2009-08-30T08:29:14Z</time>
      </trkpt>
      <trkpt lat="43.99906" lon="1.89016">
        <ele>244</ele>
        <time>2009-08-30T08:29:22Z</time>
      </trkpt>
      <trkpt lat="43.99948" lon="1.89032">
        <ele>244</ele>
        <time>2009-08-30T08:29:27Z</time>
      </trkpt>
      <trkpt lat="43.99906" lon="1.89017">
        <ele>244</ele>
        <time>2009-08-30T08:29:35Z</time>
      </trkpt>
    </trkseg>
  </trk>
</gpx>